<?xml version="1.0" encoding="UTF-8" standalone="no" ?>
<gpx xmlns="http://www.topografix.com/GPX/1/1" xmlns:xsi="http://www.w3.org/2001/XMLSchema-instance" xsi:schemaLocation="http://www.topografix.com/GPX/1/1 http://www.topografix.com/GPX/1/1/gpx.xsd" version="1.1" creator="VisuGPX - https://www.visugpx.com">
  <metadata>
    <name>Nightride - DH de Capitou</name>
    <desc><![CDATA[Balade nocturne au Grand Duc avec Stef.]]></desc>
  </metadata>
  <trk>
    <name><![CDATA[Untitled]]></name>
    <trkseg>
      <trkpt lat="43.55573" lon="6.93833">
        <ele>16</ele>
        <time>2012-09-06T19:10:06.000Z</time>
      </trkpt>
      <trkpt lat="43.55571" lon="6.93834">
        <ele>15.800000190735</ele>
        <time>2012-09-06T19:10:09.000Z</time>
      </trkpt>
      <trkpt lat="43.55568" lon="6.93838">
        <ele>15.60000038147</ele>
        <time>2012-09-06T19:10:11.000Z</time>
      </trkpt>
      <trkpt lat="43.55557" lon="6.93848">
        <ele>15.199999809265</ele>
        <time>2012-09-06T19:10:16.000Z</time>
      </trkpt>
      <trkpt lat="43.55546" lon="6.9387">
        <ele>14.60000038147</ele>
        <time>2012-09-06T19:10:21.000Z</time>
      </trkpt>
      <trkpt lat="43.55529" lon="6.93884">
        <ele>14.60000038147</ele>
        <time>2012-09-06T19:10:25.000Z</time>
      </trkpt>
      <trkpt lat="43.55524" lon="6.93884">
        <ele>14.60000038147</ele>
        <time>2012-09-06T19:10:26.000Z</time>
      </trkpt>
      <trkpt lat="43.55509" lon="6.93881">
        <ele>14.800000190735</ele>
        <time>2012-09-06T19:10:29.000Z</time>
      </trkpt>
      <trkpt lat="43.55484" lon="6.93882">
        <ele>15</ele>
        <time>2012-09-06T19:10:34.000Z</time>
      </trkpt>
      <trkpt lat="43.55479" lon="6.93883">
        <ele>15</ele>
        <time>2012-09-06T19:10:35.000Z</time>
      </trkpt>
      <trkpt lat="43.55474" lon="6.93883">
        <ele>14.800000190735</ele>
        <time>2012-09-06T19:10:36.000Z</time>
      </trkpt>
      <trkpt lat="43.55458" lon="6.93879">
        <ele>14.800000190735</ele>
        <time>2012-09-06T19:10:39.000Z</time>
      </trkpt>
      <trkpt lat="43.55449" lon="6.93876">
        <ele>14.800000190735</ele>
        <time>2012-09-06T19:10:41.000Z</time>
      </trkpt>
      <trkpt lat="43.55435" lon="6.93868">
        <ele>14.60000038147</ele>
        <time>2012-09-06T19:10:44.000Z</time>
      </trkpt>
      <trkpt lat="43.55406" lon="6.93849">
        <ele>13.60000038147</ele>
        <time>2012-09-06T19:10:50.000Z</time>
      </trkpt>
      <trkpt lat="43.55375" lon="6.93819">
        <ele>12</ele>
        <time>2012-09-06T19:10:58.000Z</time>
      </trkpt>
      <trkpt lat="43.55342" lon="6.93786">
        <ele>10.39999961853</ele>
        <time>2012-09-06T19:11:06.000Z</time>
      </trkpt>
      <trkpt lat="43.55329" lon="6.93777">
        <ele>10.199999809265</ele>
        <time>2012-09-06T19:11:09.000Z</time>
      </trkpt>
      <trkpt lat="43.55316" lon="6.93771">
        <ele>10.60000038147</ele>
        <time>2012-09-06T19:11:12.000Z</time>
      </trkpt>
      <trkpt lat="43.55286" lon="6.93767">
        <ele>12</ele>
        <time>2012-09-06T19:11:18.000Z</time>
      </trkpt>
      <trkpt lat="43.55237" lon="6.93763">
        <ele>13.39999961853</ele>
        <time>2012-09-06T19:11:28.000Z</time>
      </trkpt>
      <trkpt lat="43.55198" lon="6.93762">
        <ele>13</ele>
        <time>2012-09-06T19:11:37.000Z</time>
      </trkpt>
      <trkpt lat="43.55194" lon="6.93763">
        <ele>13</ele>
        <time>2012-09-06T19:11:38.000Z</time>
      </trkpt>
      <trkpt lat="43.55171" lon="6.93767">
        <ele>12.60000038147</ele>
        <time>2012-09-06T19:11:43.000Z</time>
      </trkpt>
      <trkpt lat="43.55135" lon="6.93771">
        <ele>13.800000190735</ele>
        <time>2012-09-06T19:11:51.000Z</time>
      </trkpt>
      <trkpt lat="43.55132" lon="6.93766">
        <ele>14</ele>
        <time>2012-09-06T19:11:52.000Z</time>
      </trkpt>
      <trkpt lat="43.55128" lon="6.9375">
        <ele>14.39999961853</ele>
        <time>2012-09-06T19:11:55.000Z</time>
      </trkpt>
      <trkpt lat="43.55127" lon="6.93739">
        <ele>15.199999809265</ele>
        <time>2012-09-06T19:11:57.000Z</time>
      </trkpt>
      <trkpt lat="43.55126" lon="6.93733">
        <ele>15.60000038147</ele>
        <time>2012-09-06T19:11:58.000Z</time>
      </trkpt>
      <trkpt lat="43.55125" lon="6.93726">
        <ele>16.200000762939</ele>
        <time>2012-09-06T19:12:00.000Z</time>
      </trkpt>
      <trkpt lat="43.55122" lon="6.93707">
        <ele>17.39999961853</ele>
        <time>2012-09-06T19:12:03.000Z</time>
      </trkpt>
      <trkpt lat="43.55121" lon="6.93702">
        <ele>17.799999237061</ele>
        <time>2012-09-06T19:12:04.000Z</time>
      </trkpt>
      <trkpt lat="43.55116" lon="6.93678">
        <ele>19.200000762939</ele>
        <time>2012-09-06T19:12:08.000Z</time>
      </trkpt>
      <trkpt lat="43.55113" lon="6.93668">
        <ele>20</ele>
        <time>2012-09-06T19:12:10.000Z</time>
      </trkpt>
      <trkpt lat="43.55107" lon="6.93636">
        <ele>23.60000038147</ele>
        <time>2012-09-06T19:12:17.000Z</time>
      </trkpt>
      <trkpt lat="43.551" lon="6.936">
        <ele>27</ele>
        <time>2012-09-06T19:12:23.000Z</time>
      </trkpt>
      <trkpt lat="43.55096" lon="6.93571">
        <ele>29.39999961853</ele>
        <time>2012-09-06T19:12:28.000Z</time>
      </trkpt>
      <trkpt lat="43.55094" lon="6.9356">
        <ele>30.200000762939</ele>
        <time>2012-09-06T19:12:30.000Z</time>
      </trkpt>
      <trkpt lat="43.55087" lon="6.93545">
        <ele>30.39999961853</ele>
        <time>2012-09-06T19:12:33.000Z</time>
      </trkpt>
      <trkpt lat="43.55081" lon="6.93534">
        <ele>30.60000038147</ele>
        <time>2012-09-06T19:12:35.000Z</time>
      </trkpt>
      <trkpt lat="43.55074" lon="6.93521">
        <ele>31.799999237061</ele>
        <time>2012-09-06T19:12:38.000Z</time>
      </trkpt>
      <trkpt lat="43.55068" lon="6.9351">
        <ele>32.599998474121</ele>
        <time>2012-09-06T19:12:40.000Z</time>
      </trkpt>
      <trkpt lat="43.55062" lon="6.93498">
        <ele>33.400001525879</ele>
        <time>2012-09-06T19:12:42.000Z</time>
      </trkpt>
      <trkpt lat="43.55056" lon="6.93484">
        <ele>34</ele>
        <time>2012-09-06T19:12:45.000Z</time>
      </trkpt>
      <trkpt lat="43.55053" lon="6.93466">
        <ele>35</ele>
        <time>2012-09-06T19:12:48.000Z</time>
      </trkpt>
      <trkpt lat="43.55051" lon="6.93454">
        <ele>35.599998474121</ele>
        <time>2012-09-06T19:12:51.000Z</time>
      </trkpt>
      <trkpt lat="43.55047" lon="6.93433">
        <ele>36.799999237061</ele>
        <time>2012-09-06T19:12:56.000Z</time>
      </trkpt>
      <trkpt lat="43.55044" lon="6.93409">
        <ele>38.200000762939</ele>
        <time>2012-09-06T19:13:01.000Z</time>
      </trkpt>
      <trkpt lat="43.55046" lon="6.93383">
        <ele>39</ele>
        <time>2012-09-06T19:13:07.000Z</time>
      </trkpt>
      <trkpt lat="43.55051" lon="6.93362">
        <ele>38.799999237061</ele>
        <time>2012-09-06T19:13:12.000Z</time>
      </trkpt>
      <trkpt lat="43.55056" lon="6.93348">
        <ele>38.200000762939</ele>
        <time>2012-09-06T19:13:16.000Z</time>
      </trkpt>
      <trkpt lat="43.5507" lon="6.93332">
        <ele>35.400001525879</ele>
        <time>2012-09-06T19:13:22.000Z</time>
      </trkpt>
      <trkpt lat="43.55082" lon="6.93336">
        <ele>32.400001525879</ele>
        <time>2012-09-06T19:13:26.000Z</time>
      </trkpt>
      <trkpt lat="43.55088" lon="6.93351">
        <ele>34.200000762939</ele>
        <time>2012-09-06T19:13:30.000Z</time>
      </trkpt>
      <trkpt lat="43.55088" lon="6.93367">
        <ele>34.599998474121</ele>
        <time>2012-09-06T19:13:35.000Z</time>
      </trkpt>
      <trkpt lat="43.55085" lon="6.9337">
        <ele>33.799999237061</ele>
        <time>2012-09-06T19:13:37.000Z</time>
      </trkpt>
      <trkpt lat="43.55081" lon="6.93374">
        <ele>33.799999237061</ele>
        <time>2012-09-06T19:13:39.000Z</time>
      </trkpt>
      <trkpt lat="43.55074" lon="6.93382">
        <ele>35</ele>
        <time>2012-09-06T19:13:45.000Z</time>
      </trkpt>
      <trkpt lat="43.55069" lon="6.93397">
        <ele>36</ele>
        <time>2012-09-06T19:13:52.000Z</time>
      </trkpt>
      <trkpt lat="43.55072" lon="6.93418">
        <ele>35.799999237061</ele>
        <time>2012-09-06T19:14:00.000Z</time>
      </trkpt>
      <trkpt lat="43.55081" lon="6.93432">
        <ele>34.799999237061</ele>
        <time>2012-09-06T19:14:08.000Z</time>
      </trkpt>
      <trkpt lat="43.55091" lon="6.93437">
        <ele>36.799999237061</ele>
        <time>2012-09-06T19:14:15.000Z</time>
      </trkpt>
      <trkpt lat="43.55103" lon="6.93435">
        <ele>40.200000762939</ele>
        <time>2012-09-06T19:14:23.000Z</time>
      </trkpt>
      <trkpt lat="43.55104" lon="6.93433">
        <ele>40.799999237061</ele>
        <time>2012-09-06T19:14:25.000Z</time>
      </trkpt>
      <trkpt lat="43.55104" lon="6.93429">
        <ele>40.799999237061</ele>
        <time>2012-09-06T19:14:28.000Z</time>
      </trkpt>
      <trkpt lat="43.55107" lon="6.93423">
        <ele>42.200000762939</ele>
        <time>2012-09-06T19:14:32.000Z</time>
      </trkpt>
      <trkpt lat="43.55113" lon="6.93414">
        <ele>44.200000762939</ele>
        <time>2012-09-06T19:14:38.000Z</time>
      </trkpt>
      <trkpt lat="43.55122" lon="6.93399">
        <ele>46.400001525879</ele>
        <time>2012-09-06T19:14:46.000Z</time>
      </trkpt>
      <trkpt lat="43.55129" lon="6.93383">
        <ele>48</ele>
        <time>2012-09-06T19:14:54.000Z</time>
      </trkpt>
      <trkpt lat="43.55138" lon="6.93365">
        <ele>49.799999237061</ele>
        <time>2012-09-06T19:15:03.000Z</time>
      </trkpt>
      <trkpt lat="43.55141" lon="6.93348">
        <ele>50</ele>
        <time>2012-09-06T19:15:11.000Z</time>
      </trkpt>
      <trkpt lat="43.55143" lon="6.93331">
        <ele>50.200000762939</ele>
        <time>2012-09-06T19:15:19.000Z</time>
      </trkpt>
      <trkpt lat="43.55147" lon="6.93312">
        <ele>52.400001525879</ele>
        <time>2012-09-06T19:15:27.000Z</time>
      </trkpt>
      <trkpt lat="43.55154" lon="6.93299">
        <ele>55</ele>
        <time>2012-09-06T19:15:34.000Z</time>
      </trkpt>
      <trkpt lat="43.55166" lon="6.9329">
        <ele>58.400001525879</ele>
        <time>2012-09-06T19:15:42.000Z</time>
      </trkpt>
      <trkpt lat="43.55171" lon="6.93287">
        <ele>59.599998474121</ele>
        <time>2012-09-06T19:15:46.000Z</time>
      </trkpt>
      <trkpt lat="43.55169" lon="6.93285">
        <ele>59.200000762939</ele>
        <time>2012-09-06T19:15:48.000Z</time>
      </trkpt>
      <trkpt lat="43.55165" lon="6.93284">
        <ele>58.400001525879</ele>
        <time>2012-09-06T19:15:52.000Z</time>
      </trkpt>
      <trkpt lat="43.55162" lon="6.9329">
        <ele>57.400001525879</ele>
        <time>2012-09-06T19:16:07.000Z</time>
      </trkpt>
      <trkpt lat="43.55162" lon="6.93291">
        <ele>57.400001525879</ele>
        <time>2012-09-06T19:16:08.000Z</time>
      </trkpt>
      <trkpt lat="43.55166" lon="6.93288">
        <ele>58.599998474121</ele>
        <time>2012-09-06T19:16:11.000Z</time>
      </trkpt>
      <trkpt lat="43.5518" lon="6.93283">
        <ele>61.799999237061</ele>
        <time>2012-09-06T19:16:19.000Z</time>
      </trkpt>
      <trkpt lat="43.5519" lon="6.93283">
        <ele>64</ele>
        <time>2012-09-06T19:16:24.000Z</time>
      </trkpt>
      <trkpt lat="43.5521" lon="6.93276">
        <ele>68.199996948242</ele>
        <time>2012-09-06T19:16:34.000Z</time>
      </trkpt>
      <trkpt lat="43.55224" lon="6.93266">
        <ele>71.599998474121</ele>
        <time>2012-09-06T19:16:43.000Z</time>
      </trkpt>
      <trkpt lat="43.55235" lon="6.93249">
        <ele>74.199996948242</ele>
        <time>2012-09-06T19:16:52.000Z</time>
      </trkpt>
      <trkpt lat="43.55242" lon="6.93227">
        <ele>78.199996948242</ele>
        <time>2012-09-06T19:17:01.000Z</time>
      </trkpt>
      <trkpt lat="43.55245" lon="6.93205">
        <ele>81.400001525879</ele>
        <time>2012-09-06T19:17:10.000Z</time>
      </trkpt>
      <trkpt lat="43.55245" lon="6.93182">
        <ele>84</ele>
        <time>2012-09-06T19:17:19.000Z</time>
      </trkpt>
      <trkpt lat="43.5524" lon="6.93164">
        <ele>85.800003051758</ele>
        <time>2012-09-06T19:17:27.000Z</time>
      </trkpt>
      <trkpt lat="43.55234" lon="6.93144">
        <ele>87.800003051758</ele>
        <time>2012-09-06T19:17:35.000Z</time>
      </trkpt>
      <trkpt lat="43.55242" lon="6.93129">
        <ele>89.199996948242</ele>
        <time>2012-09-06T19:17:41.000Z</time>
      </trkpt>
      <trkpt lat="43.55249" lon="6.9311">
        <ele>90.800003051758</ele>
        <time>2012-09-06T19:17:50.000Z</time>
      </trkpt>
      <trkpt lat="43.55253" lon="6.93093">
        <ele>92.599998474121</ele>
        <time>2012-09-06T19:17:57.000Z</time>
      </trkpt>
      <trkpt lat="43.55261" lon="6.93082">
        <ele>94.400001525879</ele>
        <time>2012-09-06T19:18:04.000Z</time>
      </trkpt>
      <trkpt lat="43.55269" lon="6.93066">
        <ele>96.800003051758</ele>
        <time>2012-09-06T19:18:12.000Z</time>
      </trkpt>
      <trkpt lat="43.55277" lon="6.93048">
        <ele>99</ele>
        <time>2012-09-06T19:18:20.000Z</time>
      </trkpt>
      <trkpt lat="43.55284" lon="6.9303">
        <ele>100.59999847412</ele>
        <time>2012-09-06T19:18:28.000Z</time>
      </trkpt>
      <trkpt lat="43.55292" lon="6.93014">
        <ele>101.59999847412</ele>
        <time>2012-09-06T19:18:35.000Z</time>
      </trkpt>
      <trkpt lat="43.55299" lon="6.93002">
        <ele>102.19999694824</ele>
        <time>2012-09-06T19:18:42.000Z</time>
      </trkpt>
      <trkpt lat="43.55307" lon="6.93007">
        <ele>101.80000305176</ele>
        <time>2012-09-06T19:18:47.000Z</time>
      </trkpt>
      <trkpt lat="43.55308" lon="6.93019">
        <ele>101.40000152588</ele>
        <time>2012-09-06T19:18:52.000Z</time>
      </trkpt>
      <trkpt lat="43.55307" lon="6.93021">
        <ele>101.19999694824</ele>
        <time>2012-09-06T19:18:53.000Z</time>
      </trkpt>
      <trkpt lat="43.55301" lon="6.93035">
        <ele>100.59999847412</ele>
        <time>2012-09-06T19:18:59.000Z</time>
      </trkpt>
      <trkpt lat="43.55293" lon="6.93047">
        <ele>99.800003051758</ele>
        <time>2012-09-06T19:19:05.000Z</time>
      </trkpt>
      <trkpt lat="43.55287" lon="6.93071">
        <ele>97.800003051758</ele>
        <time>2012-09-06T19:19:14.000Z</time>
      </trkpt>
      <trkpt lat="43.55284" lon="6.93087">
        <ele>96.400001525879</ele>
        <time>2012-09-06T19:19:20.000Z</time>
      </trkpt>
      <trkpt lat="43.55277" lon="6.93107">
        <ele>94.400001525879</ele>
        <time>2012-09-06T19:19:29.000Z</time>
      </trkpt>
      <trkpt lat="43.55275" lon="6.93121">
        <ele>93</ele>
        <time>2012-09-06T19:19:35.000Z</time>
      </trkpt>
      <trkpt lat="43.5527" lon="6.93144">
        <ele>90.800003051758</ele>
        <time>2012-09-06T19:19:44.000Z</time>
      </trkpt>
      <trkpt lat="43.55273" lon="6.93169">
        <ele>89.199996948242</ele>
        <time>2012-09-06T19:19:53.000Z</time>
      </trkpt>
      <trkpt lat="43.55281" lon="6.93194">
        <ele>87</ele>
        <time>2012-09-06T19:20:02.000Z</time>
      </trkpt>
      <trkpt lat="43.55285" lon="6.93222">
        <ele>83.800003051758</ele>
        <time>2012-09-06T19:20:10.000Z</time>
      </trkpt>
      <trkpt lat="43.55284" lon="6.93238">
        <ele>81.599998474121</ele>
        <time>2012-09-06T19:20:15.000Z</time>
      </trkpt>
      <trkpt lat="43.55289" lon="6.93253">
        <ele>80</ele>
        <time>2012-09-06T19:20:20.000Z</time>
      </trkpt>
      <trkpt lat="43.55287" lon="6.93246">
        <ele>80.599998474121</ele>
        <time>2012-09-06T19:20:23.000Z</time>
      </trkpt>
      <trkpt lat="43.55286" lon="6.9325">
        <ele>80</ele>
        <time>2012-09-06T19:20:26.000Z</time>
      </trkpt>
      <trkpt lat="43.55293" lon="6.93249">
        <ele>80.800003051758</ele>
        <time>2012-09-06T19:20:29.000Z</time>
      </trkpt>
      <trkpt lat="43.55298" lon="6.93252">
        <ele>80.800003051758</ele>
        <time>2012-09-06T19:20:33.000Z</time>
      </trkpt>
      <trkpt lat="43.55299" lon="6.93252">
        <ele>80.800003051758</ele>
        <time>2012-09-06T19:20:34.000Z</time>
      </trkpt>
      <trkpt lat="43.55301" lon="6.93246">
        <ele>81.800003051758</ele>
        <time>2012-09-06T19:20:37.000Z</time>
      </trkpt>
      <trkpt lat="43.55302" lon="6.93244">
        <ele>82.199996948242</ele>
        <time>2012-09-06T19:20:38.000Z</time>
      </trkpt>
      <trkpt lat="43.55304" lon="6.93233">
        <ele>84.199996948242</ele>
        <time>2012-09-06T19:20:43.000Z</time>
      </trkpt>
      <trkpt lat="43.55303" lon="6.93229">
        <ele>84.800003051758</ele>
        <time>2012-09-06T19:20:45.000Z</time>
      </trkpt>
      <trkpt lat="43.55303" lon="6.93227">
        <ele>85</ele>
        <time>2012-09-06T19:20:47.000Z</time>
      </trkpt>
      <trkpt lat="43.55303" lon="6.93227">
        <ele>85</ele>
        <time>2012-09-06T19:20:58.000Z</time>
      </trkpt>
      <trkpt lat="43.55305" lon="6.93218">
        <ele>86.599998474121</ele>
        <time>2012-09-06T19:21:03.000Z</time>
      </trkpt>
      <trkpt lat="43.55309" lon="6.932">
        <ele>90</ele>
        <time>2012-09-06T19:21:10.000Z</time>
      </trkpt>
      <trkpt lat="43.55314" lon="6.93185">
        <ele>93</ele>
        <time>2012-09-06T19:21:17.000Z</time>
      </trkpt>
      <trkpt lat="43.55318" lon="6.93172">
        <ele>95.800003051758</ele>
        <time>2012-09-06T19:21:23.000Z</time>
      </trkpt>
      <trkpt lat="43.5532" lon="6.93156">
        <ele>97.400001525879</ele>
        <time>2012-09-06T19:21:30.000Z</time>
      </trkpt>
      <trkpt lat="43.55323" lon="6.93136">
        <ele>98.599998474121</ele>
        <time>2012-09-06T19:21:37.000Z</time>
      </trkpt>
      <trkpt lat="43.55327" lon="6.93108">
        <ele>100.40000152588</ele>
        <time>2012-09-06T19:21:46.000Z</time>
      </trkpt>
      <trkpt lat="43.55329" lon="6.93079">
        <ele>101.59999847412</ele>
        <time>2012-09-06T19:21:51.000Z</time>
      </trkpt>
      <trkpt lat="43.55333" lon="6.9304">
        <ele>101.40000152588</ele>
        <time>2012-09-06T19:21:58.000Z</time>
      </trkpt>
      <trkpt lat="43.55337" lon="6.93023">
        <ele>101.19999694824</ele>
        <time>2012-09-06T19:22:01.000Z</time>
      </trkpt>
      <trkpt lat="43.55342" lon="6.93008">
        <ele>101.19999694824</ele>
        <time>2012-09-06T19:22:04.000Z</time>
      </trkpt>
      <trkpt lat="43.55344" lon="6.93004">
        <ele>101.19999694824</ele>
        <time>2012-09-06T19:22:05.000Z</time>
      </trkpt>
      <trkpt lat="43.55353" lon="6.92991">
        <ele>101.19999694824</ele>
        <time>2012-09-06T19:22:09.000Z</time>
      </trkpt>
      <trkpt lat="43.55361" lon="6.92981">
        <ele>101.19999694824</ele>
        <time>2012-09-06T19:22:14.000Z</time>
      </trkpt>
      <trkpt lat="43.55372" lon="6.92969">
        <ele>101.19999694824</ele>
        <time>2012-09-06T19:22:20.000Z</time>
      </trkpt>
      <trkpt lat="43.55382" lon="6.92957">
        <ele>101</ele>
        <time>2012-09-06T19:22:26.000Z</time>
      </trkpt>
      <trkpt lat="43.55393" lon="6.92941">
        <ele>100.59999847412</ele>
        <time>2012-09-06T19:22:36.000Z</time>
      </trkpt>
      <trkpt lat="43.55395" lon="6.9294">
        <ele>100.59999847412</ele>
        <time>2012-09-06T19:22:41.000Z</time>
      </trkpt>
      <trkpt lat="43.55396" lon="6.92938">
        <ele>100.59999847412</ele>
        <time>2012-09-06T19:22:47.000Z</time>
      </trkpt>
      <trkpt lat="43.55394" lon="6.92929">
        <ele>100.40000152588</ele>
        <time>2012-09-06T19:23:07.000Z</time>
      </trkpt>
      <trkpt lat="43.5539" lon="6.92908">
        <ele>101</ele>
        <time>2012-09-06T19:23:15.000Z</time>
      </trkpt>
      <trkpt lat="43.55388" lon="6.92883">
        <ele>102.80000305176</ele>
        <time>2012-09-06T19:23:24.000Z</time>
      </trkpt>
      <trkpt lat="43.5539" lon="6.9286">
        <ele>104.19999694824</ele>
        <time>2012-09-06T19:23:32.000Z</time>
      </trkpt>
      <trkpt lat="43.55392" lon="6.92837">
        <ele>105.80000305176</ele>
        <time>2012-09-06T19:23:40.000Z</time>
      </trkpt>
      <trkpt lat="43.5539" lon="6.92814">
        <ele>108.40000152588</ele>
        <time>2012-09-06T19:23:48.000Z</time>
      </trkpt>
      <trkpt lat="43.55382" lon="6.92794">
        <ele>112</ele>
        <time>2012-09-06T19:23:56.000Z</time>
      </trkpt>
      <trkpt lat="43.5537" lon="6.92778">
        <ele>116</ele>
        <time>2012-09-06T19:24:03.000Z</time>
      </trkpt>
      <trkpt lat="43.55358" lon="6.92768">
        <ele>120</ele>
        <time>2012-09-06T19:24:11.000Z</time>
      </trkpt>
      <trkpt lat="43.55347" lon="6.92757">
        <ele>123.80000305176</ele>
        <time>2012-09-06T19:24:18.000Z</time>
      </trkpt>
      <trkpt lat="43.55339" lon="6.92753">
        <ele>126.19999694824</ele>
        <time>2012-09-06T19:24:25.000Z</time>
      </trkpt>
      <trkpt lat="43.5533" lon="6.92747">
        <ele>129</ele>
        <time>2012-09-06T19:24:32.000Z</time>
      </trkpt>
      <trkpt lat="43.55321" lon="6.92737">
        <ele>131.60000610352</ele>
        <time>2012-09-06T19:24:40.000Z</time>
      </trkpt>
      <trkpt lat="43.55315" lon="6.9272">
        <ele>135.19999694824</ele>
        <time>2012-09-06T19:24:48.000Z</time>
      </trkpt>
      <trkpt lat="43.55308" lon="6.92703">
        <ele>138.80000305176</ele>
        <time>2012-09-06T19:24:57.000Z</time>
      </trkpt>
      <trkpt lat="43.55303" lon="6.92686">
        <ele>142.19999694824</ele>
        <time>2012-09-06T19:25:06.000Z</time>
      </trkpt>
      <trkpt lat="43.55295" lon="6.9267">
        <ele>145.39999389648</ele>
        <time>2012-09-06T19:25:15.000Z</time>
      </trkpt>
      <trkpt lat="43.55289" lon="6.92655">
        <ele>148.39999389648</ele>
        <time>2012-09-06T19:25:23.000Z</time>
      </trkpt>
      <trkpt lat="43.55283" lon="6.92638">
        <ele>151.80000305176</ele>
        <time>2012-09-06T19:25:32.000Z</time>
      </trkpt>
      <trkpt lat="43.55277" lon="6.92626">
        <ele>154</ele>
        <time>2012-09-06T19:25:40.000Z</time>
      </trkpt>
      <trkpt lat="43.55271" lon="6.9262">
        <ele>155.19999694824</ele>
        <time>2012-09-06T19:25:46.000Z</time>
      </trkpt>
      <trkpt lat="43.55262" lon="6.92612">
        <ele>156.39999389648</ele>
        <time>2012-09-06T19:25:54.000Z</time>
      </trkpt>
      <trkpt lat="43.55254" lon="6.92601">
        <ele>158.19999694824</ele>
        <time>2012-09-06T19:26:02.000Z</time>
      </trkpt>
      <trkpt lat="43.55247" lon="6.92595">
        <ele>159.19999694824</ele>
        <time>2012-09-06T19:26:07.000Z</time>
      </trkpt>
      <trkpt lat="43.55238" lon="6.9259">
        <ele>160.80000305176</ele>
        <time>2012-09-06T19:26:14.000Z</time>
      </trkpt>
      <trkpt lat="43.55243" lon="6.92583">
        <ele>161.60000610352</ele>
        <time>2012-09-06T19:26:19.000Z</time>
      </trkpt>
      <trkpt lat="43.55249" lon="6.92582">
        <ele>161.39999389648</ele>
        <time>2012-09-06T19:26:24.000Z</time>
      </trkpt>
      <trkpt lat="43.55251" lon="6.92583">
        <ele>161</ele>
        <time>2012-09-06T19:26:25.000Z</time>
      </trkpt>
      <trkpt lat="43.55252" lon="6.92584">
        <ele>161</ele>
        <time>2012-09-06T19:26:26.000Z</time>
      </trkpt>
      <trkpt lat="43.55259" lon="6.9259">
        <ele>160.19999694824</ele>
        <time>2012-09-06T19:26:32.000Z</time>
      </trkpt>
      <trkpt lat="43.55264" lon="6.92596">
        <ele>159.39999389648</ele>
        <time>2012-09-06T19:26:37.000Z</time>
      </trkpt>
      <trkpt lat="43.55264" lon="6.92596">
        <ele>159.39999389648</ele>
        <time>2012-09-06T19:26:38.000Z</time>
      </trkpt>
      <trkpt lat="43.55267" lon="6.92598">
        <ele>159</ele>
        <time>2012-09-06T19:26:44.000Z</time>
      </trkpt>
      <trkpt lat="43.55268" lon="6.92597">
        <ele>159.19999694824</ele>
        <time>2012-09-06T19:26:52.000Z</time>
      </trkpt>
      <trkpt lat="43.55274" lon="6.92597">
        <ele>159.60000610352</ele>
        <time>2012-09-06T19:27:21.000Z</time>
      </trkpt>
      <trkpt lat="43.55281" lon="6.92602">
        <ele>158.80000305176</ele>
        <time>2012-09-06T19:27:27.000Z</time>
      </trkpt>
      <trkpt lat="43.55295" lon="6.92605">
        <ele>158.60000610352</ele>
        <time>2012-09-06T19:27:35.000Z</time>
      </trkpt>
      <trkpt lat="43.55308" lon="6.92613">
        <ele>157.39999389648</ele>
        <time>2012-09-06T19:27:45.000Z</time>
      </trkpt>
      <trkpt lat="43.55317" lon="6.92622">
        <ele>155.60000610352</ele>
        <time>2012-09-06T19:27:52.000Z</time>
      </trkpt>
      <trkpt lat="43.55325" lon="6.92619">
        <ele>156.39999389648</ele>
        <time>2012-09-06T19:27:57.000Z</time>
      </trkpt>
      <trkpt lat="43.55335" lon="6.92609">
        <ele>158.39999389648</ele>
        <time>2012-09-06T19:28:05.000Z</time>
      </trkpt>
      <trkpt lat="43.55342" lon="6.92597">
        <ele>159.19999694824</ele>
        <time>2012-09-06T19:28:13.000Z</time>
      </trkpt>
      <trkpt lat="43.5535" lon="6.92585">
        <ele>160</ele>
        <time>2012-09-06T19:28:21.000Z</time>
      </trkpt>
      <trkpt lat="43.55356" lon="6.92571">
        <ele>161.60000610352</ele>
        <time>2012-09-06T19:28:28.000Z</time>
      </trkpt>
      <trkpt lat="43.55364" lon="6.9256">
        <ele>162.39999389648</ele>
        <time>2012-09-06T19:28:36.000Z</time>
      </trkpt>
      <trkpt lat="43.55372" lon="6.92546">
        <ele>164.19999694824</ele>
        <time>2012-09-06T19:28:45.000Z</time>
      </trkpt>
      <trkpt lat="43.55378" lon="6.92534">
        <ele>166</ele>
        <time>2012-09-06T19:28:52.000Z</time>
      </trkpt>
      <trkpt lat="43.55377" lon="6.92519">
        <ele>170.19999694824</ele>
        <time>2012-09-06T19:28:59.000Z</time>
      </trkpt>
      <trkpt lat="43.55379" lon="6.92507">
        <ele>173</ele>
        <time>2012-09-06T19:29:05.000Z</time>
      </trkpt>
      <trkpt lat="43.55388" lon="6.92494">
        <ele>174.39999389648</ele>
        <time>2012-09-06T19:29:13.000Z</time>
      </trkpt>
      <trkpt lat="43.55394" lon="6.92477">
        <ele>177.60000610352</ele>
        <time>2012-09-06T19:29:22.000Z</time>
      </trkpt>
      <trkpt lat="43.55399" lon="6.92465">
        <ele>180</ele>
        <time>2012-09-06T19:29:29.000Z</time>
      </trkpt>
      <trkpt lat="43.55401" lon="6.9246">
        <ele>181</ele>
        <time>2012-09-06T19:29:32.000Z</time>
      </trkpt>
      <trkpt lat="43.55405" lon="6.92454">
        <ele>182</ele>
        <time>2012-09-06T19:29:36.000Z</time>
      </trkpt>
      <trkpt lat="43.55412" lon="6.92443">
        <ele>183.60000610352</ele>
        <time>2012-09-06T19:29:43.000Z</time>
      </trkpt>
      <trkpt lat="43.55421" lon="6.92429">
        <ele>186.60000610352</ele>
        <time>2012-09-06T19:29:52.000Z</time>
      </trkpt>
      <trkpt lat="43.55427" lon="6.92419">
        <ele>189</ele>
        <time>2012-09-06T19:29:59.000Z</time>
      </trkpt>
      <trkpt lat="43.55433" lon="6.92409">
        <ele>191</ele>
        <time>2012-09-06T19:30:06.000Z</time>
      </trkpt>
      <trkpt lat="43.5544" lon="6.92397">
        <ele>194.19999694824</ele>
        <time>2012-09-06T19:30:14.000Z</time>
      </trkpt>
      <trkpt lat="43.55447" lon="6.92382">
        <ele>198.19999694824</ele>
        <time>2012-09-06T19:30:23.000Z</time>
      </trkpt>
      <trkpt lat="43.55455" lon="6.9237">
        <ele>201</ele>
        <time>2012-09-06T19:30:31.000Z</time>
      </trkpt>
      <trkpt lat="43.55467" lon="6.92363">
        <ele>202</ele>
        <time>2012-09-06T19:30:38.000Z</time>
      </trkpt>
      <trkpt lat="43.55479" lon="6.92368">
        <ele>199</ele>
        <time>2012-09-06T19:30:44.000Z</time>
      </trkpt>
      <trkpt lat="43.55491" lon="6.92369">
        <ele>197</ele>
        <time>2012-09-06T19:30:51.000Z</time>
      </trkpt>
      <trkpt lat="43.55507" lon="6.92366">
        <ele>197.39999389648</ele>
        <time>2012-09-06T19:31:00.000Z</time>
      </trkpt>
      <trkpt lat="43.55521" lon="6.9237">
        <ele>195.80000305176</ele>
        <time>2012-09-06T19:31:08.000Z</time>
      </trkpt>
      <trkpt lat="43.55536" lon="6.9237">
        <ele>195.80000305176</ele>
        <time>2012-09-06T19:31:16.000Z</time>
      </trkpt>
      <trkpt lat="43.55546" lon="6.92366">
        <ele>197.19999694824</ele>
        <time>2012-09-06T19:31:23.000Z</time>
      </trkpt>
      <trkpt lat="43.55551" lon="6.92355">
        <ele>201</ele>
        <time>2012-09-06T19:31:30.000Z</time>
      </trkpt>
      <trkpt lat="43.55556" lon="6.92342">
        <ele>205.39999389648</ele>
        <time>2012-09-06T19:31:38.000Z</time>
      </trkpt>
      <trkpt lat="43.5556" lon="6.92331">
        <ele>208.80000305176</ele>
        <time>2012-09-06T19:31:45.000Z</time>
      </trkpt>
      <trkpt lat="43.55566" lon="6.92321">
        <ele>210.80000305176</ele>
        <time>2012-09-06T19:31:53.000Z</time>
      </trkpt>
      <trkpt lat="43.55571" lon="6.92318">
        <ele>211.19999694824</ele>
        <time>2012-09-06T19:31:57.000Z</time>
      </trkpt>
      <trkpt lat="43.55575" lon="6.92315">
        <ele>211.80000305176</ele>
        <time>2012-09-06T19:32:00.000Z</time>
      </trkpt>
      <trkpt lat="43.55577" lon="6.92304">
        <ele>213.60000610352</ele>
        <time>2012-09-06T19:32:06.000Z</time>
      </trkpt>
      <trkpt lat="43.5558" lon="6.92302">
        <ele>213.80000305176</ele>
        <time>2012-09-06T19:32:08.000Z</time>
      </trkpt>
      <trkpt lat="43.55584" lon="6.92297">
        <ele>214.60000610352</ele>
        <time>2012-09-06T19:32:12.000Z</time>
      </trkpt>
      <trkpt lat="43.55592" lon="6.92287">
        <ele>216.60000610352</ele>
        <time>2012-09-06T19:32:20.000Z</time>
      </trkpt>
      <trkpt lat="43.55597" lon="6.92282">
        <ele>217.80000305176</ele>
        <time>2012-09-06T19:32:25.000Z</time>
      </trkpt>
      <trkpt lat="43.55598" lon="6.92281">
        <ele>218</ele>
        <time>2012-09-06T19:32:26.000Z</time>
      </trkpt>
      <trkpt lat="43.55603" lon="6.92271">
        <ele>220.39999389648</ele>
        <time>2012-09-06T19:32:32.000Z</time>
      </trkpt>
      <trkpt lat="43.55613" lon="6.92263">
        <ele>222.60000610352</ele>
        <time>2012-09-06T19:32:40.000Z</time>
      </trkpt>
      <trkpt lat="43.55625" lon="6.92269">
        <ele>222</ele>
        <time>2012-09-06T19:32:47.000Z</time>
      </trkpt>
      <trkpt lat="43.55629" lon="6.92276">
        <ele>220.80000305176</ele>
        <time>2012-09-06T19:32:50.000Z</time>
      </trkpt>
      <trkpt lat="43.55629" lon="6.92282">
        <ele>219.60000610352</ele>
        <time>2012-09-06T19:32:52.000Z</time>
      </trkpt>
      <trkpt lat="43.55628" lon="6.92307">
        <ele>214</ele>
        <time>2012-09-06T19:33:01.000Z</time>
      </trkpt>
      <trkpt lat="43.55624" lon="6.92325">
        <ele>210.19999694824</ele>
        <time>2012-09-06T19:33:09.000Z</time>
      </trkpt>
      <trkpt lat="43.55625" lon="6.92335">
        <ele>207.80000305176</ele>
        <time>2012-09-06T19:33:14.000Z</time>
      </trkpt>
      <trkpt lat="43.55626" lon="6.92337">
        <ele>207.19999694824</ele>
        <time>2012-09-06T19:33:15.000Z</time>
      </trkpt>
      <trkpt lat="43.55633" lon="6.92339">
        <ele>206.60000610352</ele>
        <time>2012-09-06T19:33:20.000Z</time>
      </trkpt>
      <trkpt lat="43.55641" lon="6.92334">
        <ele>208.60000610352</ele>
        <time>2012-09-06T19:33:26.000Z</time>
      </trkpt>
      <trkpt lat="43.55643" lon="6.9233">
        <ele>209.60000610352</ele>
        <time>2012-09-06T19:33:29.000Z</time>
      </trkpt>
      <trkpt lat="43.55646" lon="6.92326">
        <ele>210.39999389648</ele>
        <time>2012-09-06T19:33:32.000Z</time>
      </trkpt>
      <trkpt lat="43.55646" lon="6.92324">
        <ele>211</ele>
        <time>2012-09-06T19:33:33.000Z</time>
      </trkpt>
      <trkpt lat="43.55648" lon="6.92316">
        <ele>212.60000610352</ele>
        <time>2012-09-06T19:33:37.000Z</time>
      </trkpt>
      <trkpt lat="43.55647" lon="6.92308">
        <ele>214.60000610352</ele>
        <time>2012-09-06T19:33:41.000Z</time>
      </trkpt>
      <trkpt lat="43.55646" lon="6.92306">
        <ele>215</ele>
        <time>2012-09-06T19:33:42.000Z</time>
      </trkpt>
      <trkpt lat="43.55647" lon="6.92291">
        <ele>218.39999389648</ele>
        <time>2012-09-06T19:33:50.000Z</time>
      </trkpt>
      <trkpt lat="43.55648" lon="6.92277">
        <ele>221.60000610352</ele>
        <time>2012-09-06T19:33:57.000Z</time>
      </trkpt>
      <trkpt lat="43.55648" lon="6.92269">
        <ele>223.39999389648</ele>
        <time>2012-09-06T19:34:01.000Z</time>
      </trkpt>
      <trkpt lat="43.55647" lon="6.92263">
        <ele>224.60000610352</ele>
        <time>2012-09-06T19:34:04.000Z</time>
      </trkpt>
      <trkpt lat="43.55642" lon="6.9224">
        <ele>228.39999389648</ele>
        <time>2012-09-06T19:34:15.000Z</time>
      </trkpt>
      <trkpt lat="43.55638" lon="6.92221">
        <ele>230.19999694824</ele>
        <time>2012-09-06T19:34:24.000Z</time>
      </trkpt>
      <trkpt lat="43.55633" lon="6.92205">
        <ele>231.60000610352</ele>
        <time>2012-09-06T19:34:32.000Z</time>
      </trkpt>
      <trkpt lat="43.55626" lon="6.92187">
        <ele>233</ele>
        <time>2012-09-06T19:34:41.000Z</time>
      </trkpt>
      <trkpt lat="43.5562" lon="6.92166">
        <ele>234.39999389648</ele>
        <time>2012-09-06T19:34:51.000Z</time>
      </trkpt>
      <trkpt lat="43.55614" lon="6.92148">
        <ele>235.19999694824</ele>
        <time>2012-09-06T19:34:59.000Z</time>
      </trkpt>
      <trkpt lat="43.55612" lon="6.92123">
        <ele>237.19999694824</ele>
        <time>2012-09-06T19:35:08.000Z</time>
      </trkpt>
      <trkpt lat="43.55619" lon="6.921">
        <ele>239.39999389648</ele>
        <time>2012-09-06T19:35:17.000Z</time>
      </trkpt>
      <trkpt lat="43.55631" lon="6.92092">
        <ele>240.60000610352</ele>
        <time>2012-09-06T19:35:24.000Z</time>
      </trkpt>
      <trkpt lat="43.55642" lon="6.92076">
        <ele>243.19999694824</ele>
        <time>2012-09-06T19:35:32.000Z</time>
      </trkpt>
      <trkpt lat="43.55639" lon="6.92067">
        <ele>244.80000305176</ele>
        <time>2012-09-06T19:35:36.000Z</time>
      </trkpt>
      <trkpt lat="43.55637" lon="6.92066">
        <ele>244.80000305176</ele>
        <time>2012-09-06T19:35:37.000Z</time>
      </trkpt>
      <trkpt lat="43.55631" lon="6.92063">
        <ele>245.19999694824</ele>
        <time>2012-09-06T19:35:41.000Z</time>
      </trkpt>
      <trkpt lat="43.55626" lon="6.92062">
        <ele>245.19999694824</ele>
        <time>2012-09-06T19:35:44.000Z</time>
      </trkpt>
      <trkpt lat="43.55612" lon="6.92062">
        <ele>245</ele>
        <time>2012-09-06T19:35:52.000Z</time>
      </trkpt>
      <trkpt lat="43.55593" lon="6.92059">
        <ele>245.19999694824</ele>
        <time>2012-09-06T19:36:02.000Z</time>
      </trkpt>
      <trkpt lat="43.55581" lon="6.92059">
        <ele>245.39999389648</ele>
        <time>2012-09-06T19:36:10.000Z</time>
      </trkpt>
      <trkpt lat="43.55572" lon="6.92056">
        <ele>248.19999694824</ele>
        <time>2012-09-06T19:36:16.000Z</time>
      </trkpt>
      <trkpt lat="43.55564" lon="6.92053">
        <ele>250.80000305176</ele>
        <time>2012-09-06T19:36:22.000Z</time>
      </trkpt>
      <trkpt lat="43.55555" lon="6.92049">
        <ele>254</ele>
        <time>2012-09-06T19:36:29.000Z</time>
      </trkpt>
      <trkpt lat="43.55547" lon="6.92051">
        <ele>255.39999389648</ele>
        <time>2012-09-06T19:36:35.000Z</time>
      </trkpt>
      <trkpt lat="43.55546" lon="6.92052">
        <ele>255.39999389648</ele>
        <time>2012-09-06T19:36:40.000Z</time>
      </trkpt>
      <trkpt lat="43.55546" lon="6.92055">
        <ele>254.80000305176</ele>
        <time>2012-09-06T19:38:01.000Z</time>
      </trkpt>
      <trkpt lat="43.55547" lon="6.92057">
        <ele>254</ele>
        <time>2012-09-06T19:38:18.000Z</time>
      </trkpt>
      <trkpt lat="43.55551" lon="6.92055">
        <ele>253.60000610352</ele>
        <time>2012-09-06T19:38:20.000Z</time>
      </trkpt>
      <trkpt lat="43.55566" lon="6.92052">
        <ele>250.80000305176</ele>
        <time>2012-09-06T19:38:25.000Z</time>
      </trkpt>
      <trkpt lat="43.55587" lon="6.92056">
        <ele>245.60000610352</ele>
        <time>2012-09-06T19:38:29.000Z</time>
      </trkpt>
      <trkpt lat="43.55624" lon="6.92063">
        <ele>245</ele>
        <time>2012-09-06T19:38:34.000Z</time>
      </trkpt>
      <trkpt lat="43.55637" lon="6.92067">
        <ele>244.80000305176</ele>
        <time>2012-09-06T19:38:36.000Z</time>
      </trkpt>
      <trkpt lat="43.55642" lon="6.92076">
        <ele>243.19999694824</ele>
        <time>2012-09-06T19:38:38.000Z</time>
      </trkpt>
      <trkpt lat="43.55638" lon="6.92088">
        <ele>241.39999389648</ele>
        <time>2012-09-06T19:38:41.000Z</time>
      </trkpt>
      <trkpt lat="43.55634" lon="6.92092">
        <ele>240.80000305176</ele>
        <time>2012-09-06T19:38:43.000Z</time>
      </trkpt>
      <trkpt lat="43.55627" lon="6.92097">
        <ele>240.19999694824</ele>
        <time>2012-09-06T19:38:45.000Z</time>
      </trkpt>
      <trkpt lat="43.55623" lon="6.921">
        <ele>239.80000305176</ele>
        <time>2012-09-06T19:38:46.000Z</time>
      </trkpt>
      <trkpt lat="43.55613" lon="6.9212">
        <ele>237.39999389648</ele>
        <time>2012-09-06T19:38:50.000Z</time>
      </trkpt>
      <trkpt lat="43.55614" lon="6.92151">
        <ele>235</ele>
        <time>2012-09-06T19:38:54.000Z</time>
      </trkpt>
      <trkpt lat="43.55622" lon="6.92173">
        <ele>234</ele>
        <time>2012-09-06T19:38:57.000Z</time>
      </trkpt>
      <trkpt lat="43.55627" lon="6.92189">
        <ele>232.80000305176</ele>
        <time>2012-09-06T19:38:59.000Z</time>
      </trkpt>
      <trkpt lat="43.55644" lon="6.92244">
        <ele>228</ele>
        <time>2012-09-06T19:39:05.000Z</time>
      </trkpt>
      <trkpt lat="43.55648" lon="6.9228">
        <ele>220.80000305176</ele>
        <time>2012-09-06T19:39:09.000Z</time>
      </trkpt>
      <trkpt lat="43.55651" lon="6.92303">
        <ele>215.60000610352</ele>
        <time>2012-09-06T19:39:13.000Z</time>
      </trkpt>
      <trkpt lat="43.55652" lon="6.92307">
        <ele>215</ele>
        <time>2012-09-06T19:39:14.000Z</time>
      </trkpt>
      <trkpt lat="43.55656" lon="6.9231">
        <ele>214.19999694824</ele>
        <time>2012-09-06T19:39:17.000Z</time>
      </trkpt>
      <trkpt lat="43.55655" lon="6.9231">
        <ele>214.19999694824</ele>
        <time>2012-09-06T19:39:18.000Z</time>
      </trkpt>
      <trkpt lat="43.55655" lon="6.9231">
        <ele>214.39999389648</ele>
        <time>2012-09-06T19:39:22.000Z</time>
      </trkpt>
      <trkpt lat="43.55655" lon="6.92311">
        <ele>214</ele>
        <time>2012-09-06T19:39:27.000Z</time>
      </trkpt>
      <trkpt lat="43.55655" lon="6.92309">
        <ele>214.39999389648</ele>
        <time>2012-09-06T19:39:35.000Z</time>
      </trkpt>
      <trkpt lat="43.55655" lon="6.92309">
        <ele>214.60000610352</ele>
        <time>2012-09-06T19:39:45.000Z</time>
      </trkpt>
      <trkpt lat="43.55653" lon="6.92307">
        <ele>215</ele>
        <time>2012-09-06T19:41:59.000Z</time>
      </trkpt>
      <trkpt lat="43.55654" lon="6.92307">
        <ele>215</ele>
        <time>2012-09-06T19:42:02.000Z</time>
      </trkpt>
      <trkpt lat="43.55651" lon="6.92308">
        <ele>214.60000610352</ele>
        <time>2012-09-06T19:42:14.000Z</time>
      </trkpt>
      <trkpt lat="43.55648" lon="6.92314">
        <ele>213</ele>
        <time>2012-09-06T19:42:16.000Z</time>
      </trkpt>
      <trkpt lat="43.55642" lon="6.92328">
        <ele>210</ele>
        <time>2012-09-06T19:42:20.000Z</time>
      </trkpt>
      <trkpt lat="43.55628" lon="6.92339">
        <ele>206.60000610352</ele>
        <time>2012-09-06T19:42:26.000Z</time>
      </trkpt>
      <trkpt lat="43.55623" lon="6.92338">
        <ele>206.80000305176</ele>
        <time>2012-09-06T19:42:29.000Z</time>
      </trkpt>
      <trkpt lat="43.55621" lon="6.92342">
        <ele>205.60000610352</ele>
        <time>2012-09-06T19:42:31.000Z</time>
      </trkpt>
      <trkpt lat="43.55623" lon="6.92346">
        <ele>204</ele>
        <time>2012-09-06T19:42:35.000Z</time>
      </trkpt>
      <trkpt lat="43.55627" lon="6.92339">
        <ele>206.80000305176</ele>
        <time>2012-09-06T19:42:55.000Z</time>
      </trkpt>
      <trkpt lat="43.55632" lon="6.92336">
        <ele>207.60000610352</ele>
        <time>2012-09-06T19:42:59.000Z</time>
      </trkpt>
      <trkpt lat="43.55633" lon="6.92337">
        <ele>207.39999389648</ele>
        <time>2012-09-06T19:43:00.000Z</time>
      </trkpt>
      <trkpt lat="43.5564" lon="6.92337">
        <ele>207.60000610352</ele>
        <time>2012-09-06T19:43:05.000Z</time>
      </trkpt>
      <trkpt lat="43.55645" lon="6.92332">
        <ele>209</ele>
        <time>2012-09-06T19:43:09.000Z</time>
      </trkpt>
      <trkpt lat="43.55648" lon="6.92329">
        <ele>209.60000610352</ele>
        <time>2012-09-06T19:43:11.000Z</time>
      </trkpt>
      <trkpt lat="43.5565" lon="6.92318">
        <ele>212.19999694824</ele>
        <time>2012-09-06T19:43:17.000Z</time>
      </trkpt>
      <trkpt lat="43.55656" lon="6.92307">
        <ele>215</ele>
        <time>2012-09-06T19:43:24.000Z</time>
      </trkpt>
      <trkpt lat="43.55665" lon="6.92304">
        <ele>216</ele>
        <time>2012-09-06T19:43:30.000Z</time>
      </trkpt>
      <trkpt lat="43.55669" lon="6.92294">
        <ele>218.80000305176</ele>
        <time>2012-09-06T19:43:36.000Z</time>
      </trkpt>
      <trkpt lat="43.5567" lon="6.92292">
        <ele>219.39999389648</ele>
        <time>2012-09-06T19:43:37.000Z</time>
      </trkpt>
      <trkpt lat="43.55672" lon="6.92291">
        <ele>219.80000305176</ele>
        <time>2012-09-06T19:43:40.000Z</time>
      </trkpt>
      <trkpt lat="43.55674" lon="6.92292">
        <ele>220</ele>
        <time>2012-09-06T19:44:05.000Z</time>
      </trkpt>
      <trkpt lat="43.55674" lon="6.92291">
        <ele>220.19999694824</ele>
        <time>2012-09-06T19:44:06.000Z</time>
      </trkpt>
      <trkpt lat="43.55673" lon="6.92292">
        <ele>219.80000305176</ele>
        <time>2012-09-06T19:45:37.000Z</time>
      </trkpt>
      <trkpt lat="43.55673" lon="6.92292">
        <ele>219.80000305176</ele>
        <time>2012-09-06T19:45:47.000Z</time>
      </trkpt>
      <trkpt lat="43.55673" lon="6.92296">
        <ele>219</ele>
        <time>2012-09-06T19:46:47.000Z</time>
      </trkpt>
      <trkpt lat="43.5567" lon="6.92298">
        <ele>217.80000305176</ele>
        <time>2012-09-06T19:46:49.000Z</time>
      </trkpt>
      <trkpt lat="43.55664" lon="6.92302">
        <ele>216.60000610352</ele>
        <time>2012-09-06T19:46:54.000Z</time>
      </trkpt>
      <trkpt lat="43.55663" lon="6.92302">
        <ele>216.19999694824</ele>
        <time>2012-09-06T19:46:55.000Z</time>
      </trkpt>
      <trkpt lat="43.55656" lon="6.92302">
        <ele>216.19999694824</ele>
        <time>2012-09-06T19:47:01.000Z</time>
      </trkpt>
      <trkpt lat="43.55651" lon="6.92297">
        <ele>217</ele>
        <time>2012-09-06T19:47:07.000Z</time>
      </trkpt>
      <trkpt lat="43.55651" lon="6.92296">
        <ele>217.39999389648</ele>
        <time>2012-09-06T19:47:08.000Z</time>
      </trkpt>
      <trkpt lat="43.55648" lon="6.92284">
        <ele>219.80000305176</ele>
        <time>2012-09-06T19:47:16.000Z</time>
      </trkpt>
      <trkpt lat="43.55649" lon="6.9227">
        <ele>223.19999694824</ele>
        <time>2012-09-06T19:47:24.000Z</time>
      </trkpt>
      <trkpt lat="43.55647" lon="6.92259">
        <ele>225.60000610352</ele>
        <time>2012-09-06T19:47:29.000Z</time>
      </trkpt>
      <trkpt lat="43.55647" lon="6.92255">
        <ele>226.39999389648</ele>
        <time>2012-09-06T19:47:31.000Z</time>
      </trkpt>
      <trkpt lat="43.55643" lon="6.92236">
        <ele>229</ele>
        <time>2012-09-06T19:47:39.000Z</time>
      </trkpt>
      <trkpt lat="43.55637" lon="6.92216">
        <ele>230.80000305176</ele>
        <time>2012-09-06T19:47:48.000Z</time>
      </trkpt>
      <trkpt lat="43.55629" lon="6.92192">
        <ele>232.80000305176</ele>
        <time>2012-09-06T19:47:58.000Z</time>
      </trkpt>
      <trkpt lat="43.55622" lon="6.92172">
        <ele>234</ele>
        <time>2012-09-06T19:48:06.000Z</time>
      </trkpt>
      <trkpt lat="43.55616" lon="6.92154">
        <ele>235</ele>
        <time>2012-09-06T19:48:13.000Z</time>
      </trkpt>
      <trkpt lat="43.55612" lon="6.92134">
        <ele>236.19999694824</ele>
        <time>2012-09-06T19:48:20.000Z</time>
      </trkpt>
      <trkpt lat="43.55615" lon="6.92112">
        <ele>238.19999694824</ele>
        <time>2012-09-06T19:48:27.000Z</time>
      </trkpt>
      <trkpt lat="43.55626" lon="6.92096">
        <ele>240.19999694824</ele>
        <time>2012-09-06T19:48:34.000Z</time>
      </trkpt>
      <trkpt lat="43.55641" lon="6.92082">
        <ele>242</ele>
        <time>2012-09-06T19:48:41.000Z</time>
      </trkpt>
      <trkpt lat="43.55643" lon="6.92075">
        <ele>243.39999389648</ele>
        <time>2012-09-06T19:48:43.000Z</time>
      </trkpt>
      <trkpt lat="43.5564" lon="6.92068">
        <ele>244.60000610352</ele>
        <time>2012-09-06T19:48:45.000Z</time>
      </trkpt>
      <trkpt lat="43.55631" lon="6.92064">
        <ele>245.19999694824</ele>
        <time>2012-09-06T19:48:49.000Z</time>
      </trkpt>
      <trkpt lat="43.55629" lon="6.92064">
        <ele>245.19999694824</ele>
        <time>2012-09-06T19:48:50.000Z</time>
      </trkpt>
      <trkpt lat="43.55614" lon="6.9206">
        <ele>245.39999389648</ele>
        <time>2012-09-06T19:48:57.000Z</time>
      </trkpt>
      <trkpt lat="43.55598" lon="6.92057">
        <ele>245.60000610352</ele>
        <time>2012-09-06T19:49:05.000Z</time>
      </trkpt>
      <trkpt lat="43.55578" lon="6.92056">
        <ele>247</ele>
        <time>2012-09-06T19:49:16.000Z</time>
      </trkpt>
      <trkpt lat="43.5556" lon="6.92051">
        <ele>252.39999389648</ele>
        <time>2012-09-06T19:49:26.000Z</time>
      </trkpt>
      <trkpt lat="43.55546" lon="6.92057">
        <ele>254.19999694824</ele>
        <time>2012-09-06T19:49:33.000Z</time>
      </trkpt>
      <trkpt lat="43.55537" lon="6.92072">
        <ele>253.60000610352</ele>
        <time>2012-09-06T19:49:39.000Z</time>
      </trkpt>
      <trkpt lat="43.55527" lon="6.92102">
        <ele>251</ele>
        <time>2012-09-06T19:49:49.000Z</time>
      </trkpt>
      <trkpt lat="43.55519" lon="6.92127">
        <ele>249.60000610352</ele>
        <time>2012-09-06T19:49:57.000Z</time>
      </trkpt>
      <trkpt lat="43.55508" lon="6.92151">
        <ele>248.60000610352</ele>
        <time>2012-09-06T19:50:06.000Z</time>
      </trkpt>
      <trkpt lat="43.55496" lon="6.9217">
        <ele>248.39999389648</ele>
        <time>2012-09-06T19:50:14.000Z</time>
      </trkpt>
      <trkpt lat="43.55487" lon="6.92179">
        <ele>248.80000305176</ele>
        <time>2012-09-06T19:50:21.000Z</time>
      </trkpt>
      <trkpt lat="43.55475" lon="6.92184">
        <ele>250.19999694824</ele>
        <time>2012-09-06T19:50:28.000Z</time>
      </trkpt>
      <trkpt lat="43.55461" lon="6.92188">
        <ele>252</ele>
        <time>2012-09-06T19:50:36.000Z</time>
      </trkpt>
      <trkpt lat="43.55442" lon="6.92186">
        <ele>256.79998779297</ele>
        <time>2012-09-06T19:50:46.000Z</time>
      </trkpt>
      <trkpt lat="43.55426" lon="6.92188">
        <ele>259.20001220703</ele>
        <time>2012-09-06T19:50:54.000Z</time>
      </trkpt>
      <trkpt lat="43.55413" lon="6.922">
        <ele>258</ele>
        <time>2012-09-06T19:51:01.000Z</time>
      </trkpt>
      <trkpt lat="43.55395" lon="6.92219">
        <ele>253.80000305176</ele>
        <time>2012-09-06T19:51:08.000Z</time>
      </trkpt>
      <trkpt lat="43.55385" lon="6.92226">
        <ele>252.60000610352</ele>
        <time>2012-09-06T19:51:13.000Z</time>
      </trkpt>
      <trkpt lat="43.55383" lon="6.92225">
        <ele>252.60000610352</ele>
        <time>2012-09-06T19:51:14.000Z</time>
      </trkpt>
      <trkpt lat="43.55381" lon="6.92226">
        <ele>252.60000610352</ele>
        <time>2012-09-06T19:51:17.000Z</time>
      </trkpt>
      <trkpt lat="43.55379" lon="6.92228">
        <ele>252.19999694824</ele>
        <time>2012-09-06T19:51:18.000Z</time>
      </trkpt>
      <trkpt lat="43.55377" lon="6.92229">
        <ele>252</ele>
        <time>2012-09-06T19:51:19.000Z</time>
      </trkpt>
      <trkpt lat="43.55374" lon="6.92227">
        <ele>252.80000305176</ele>
        <time>2012-09-06T19:51:21.000Z</time>
      </trkpt>
      <trkpt lat="43.55373" lon="6.92225">
        <ele>253.39999389648</ele>
        <time>2012-09-06T19:51:22.000Z</time>
      </trkpt>
      <trkpt lat="43.55374" lon="6.92221">
        <ele>254.60000610352</ele>
        <time>2012-09-06T19:51:24.000Z</time>
      </trkpt>
      <trkpt lat="43.55377" lon="6.92218">
        <ele>255</ele>
        <time>2012-09-06T19:51:26.000Z</time>
      </trkpt>
      <trkpt lat="43.55392" lon="6.92208">
        <ele>257</ele>
        <time>2012-09-06T19:51:34.000Z</time>
      </trkpt>
      <trkpt lat="43.55407" lon="6.9219">
        <ele>261</ele>
        <time>2012-09-06T19:51:44.000Z</time>
      </trkpt>
      <trkpt lat="43.55422" lon="6.92169">
        <ele>265</ele>
        <time>2012-09-06T19:51:55.000Z</time>
      </trkpt>
      <trkpt lat="43.55436" lon="6.9215">
        <ele>266</ele>
        <time>2012-09-06T19:52:05.000Z</time>
      </trkpt>
      <trkpt lat="43.55447" lon="6.92134">
        <ele>266.79998779297</ele>
        <time>2012-09-06T19:52:13.000Z</time>
      </trkpt>
      <trkpt lat="43.55456" lon="6.92112">
        <ele>268.39999389648</ele>
        <time>2012-09-06T19:52:22.000Z</time>
      </trkpt>
      <trkpt lat="43.55464" lon="6.92083">
        <ele>271.79998779297</ele>
        <time>2012-09-06T19:52:33.000Z</time>
      </trkpt>
      <trkpt lat="43.55467" lon="6.92058">
        <ele>275.39999389648</ele>
        <time>2012-09-06T19:52:42.000Z</time>
      </trkpt>
      <trkpt lat="43.55469" lon="6.92028">
        <ele>280</ele>
        <time>2012-09-06T19:52:52.000Z</time>
      </trkpt>
      <trkpt lat="43.55471" lon="6.91997">
        <ele>284.39999389648</ele>
        <time>2012-09-06T19:53:02.000Z</time>
      </trkpt>
      <trkpt lat="43.55472" lon="6.91969">
        <ele>286.20001220703</ele>
        <time>2012-09-06T19:53:11.000Z</time>
      </trkpt>
      <trkpt lat="43.55475" lon="6.9194">
        <ele>287.79998779297</ele>
        <time>2012-09-06T19:53:20.000Z</time>
      </trkpt>
      <trkpt lat="43.55476" lon="6.91917">
        <ele>289.60000610352</ele>
        <time>2012-09-06T19:53:27.000Z</time>
      </trkpt>
      <trkpt lat="43.55482" lon="6.91888">
        <ele>288.60000610352</ele>
        <time>2012-09-06T19:53:36.000Z</time>
      </trkpt>
      <trkpt lat="43.55494" lon="6.91868">
        <ele>287.79998779297</ele>
        <time>2012-09-06T19:53:44.000Z</time>
      </trkpt>
      <trkpt lat="43.55504" lon="6.91858">
        <ele>288.39999389648</ele>
        <time>2012-09-06T19:53:50.000Z</time>
      </trkpt>
      <trkpt lat="43.55506" lon="6.91842">
        <ele>289.39999389648</ele>
        <time>2012-09-06T19:53:55.000Z</time>
      </trkpt>
      <trkpt lat="43.55506" lon="6.91821">
        <ele>289.39999389648</ele>
        <time>2012-09-06T19:54:00.000Z</time>
      </trkpt>
      <trkpt lat="43.55511" lon="6.91795">
        <ele>289</ele>
        <time>2012-09-06T19:54:07.000Z</time>
      </trkpt>
      <trkpt lat="43.55519" lon="6.91767">
        <ele>289.39999389648</ele>
        <time>2012-09-06T19:54:16.000Z</time>
      </trkpt>
      <trkpt lat="43.55519" lon="6.91743">
        <ele>288</ele>
        <time>2012-09-06T19:54:23.000Z</time>
      </trkpt>
      <trkpt lat="43.55524" lon="6.91727">
        <ele>287.39999389648</ele>
        <time>2012-09-06T19:54:29.000Z</time>
      </trkpt>
      <trkpt lat="43.55538" lon="6.91713">
        <ele>288.79998779297</ele>
        <time>2012-09-06T19:54:37.000Z</time>
      </trkpt>
      <trkpt lat="43.55557" lon="6.91699">
        <ele>290.79998779297</ele>
        <time>2012-09-06T19:54:46.000Z</time>
      </trkpt>
      <trkpt lat="43.5557" lon="6.91683">
        <ele>291.20001220703</ele>
        <time>2012-09-06T19:54:54.000Z</time>
      </trkpt>
      <trkpt lat="43.55589" lon="6.91671">
        <ele>292.79998779297</ele>
        <time>2012-09-06T19:55:03.000Z</time>
      </trkpt>
      <trkpt lat="43.55608" lon="6.9167">
        <ele>295.79998779297</ele>
        <time>2012-09-06T19:55:11.000Z</time>
      </trkpt>
      <trkpt lat="43.55628" lon="6.9167">
        <ele>299.60000610352</ele>
        <time>2012-09-06T19:55:19.000Z</time>
      </trkpt>
      <trkpt lat="43.55654" lon="6.91671">
        <ele>304.39999389648</ele>
        <time>2012-09-06T19:55:29.000Z</time>
      </trkpt>
      <trkpt lat="43.55668" lon="6.91659">
        <ele>306</ele>
        <time>2012-09-06T19:55:35.000Z</time>
      </trkpt>
      <trkpt lat="43.5567" lon="6.91638">
        <ele>306</ele>
        <time>2012-09-06T19:55:40.000Z</time>
      </trkpt>
      <trkpt lat="43.55665" lon="6.91606">
        <ele>303.39999389648</ele>
        <time>2012-09-06T19:55:48.000Z</time>
      </trkpt>
      <trkpt lat="43.55659" lon="6.91581">
        <ele>300.60000610352</ele>
        <time>2012-09-06T19:55:56.000Z</time>
      </trkpt>
      <trkpt lat="43.55658" lon="6.91557">
        <ele>298.20001220703</ele>
        <time>2012-09-06T19:56:04.000Z</time>
      </trkpt>
      <trkpt lat="43.55664" lon="6.91545">
        <ele>299.39999389648</ele>
        <time>2012-09-06T19:56:09.000Z</time>
      </trkpt>
      <trkpt lat="43.55678" lon="6.91534">
        <ele>303.20001220703</ele>
        <time>2012-09-06T19:56:16.000Z</time>
      </trkpt>
      <trkpt lat="43.5569" lon="6.91516">
        <ele>306</ele>
        <time>2012-09-06T19:56:25.000Z</time>
      </trkpt>
      <trkpt lat="43.55695" lon="6.91503">
        <ele>306.79998779297</ele>
        <time>2012-09-06T19:56:32.000Z</time>
      </trkpt>
      <trkpt lat="43.55705" lon="6.91485">
        <ele>307.60000610352</ele>
        <time>2012-09-06T19:56:42.000Z</time>
      </trkpt>
      <trkpt lat="43.55717" lon="6.91469">
        <ele>308.79998779297</ele>
        <time>2012-09-06T19:56:52.000Z</time>
      </trkpt>
      <trkpt lat="43.55725" lon="6.91457">
        <ele>309.20001220703</ele>
        <time>2012-09-06T19:56:58.000Z</time>
      </trkpt>
      <trkpt lat="43.55737" lon="6.91454">
        <ele>312</ele>
        <time>2012-09-06T19:57:04.000Z</time>
      </trkpt>
      <trkpt lat="43.55752" lon="6.91452">
        <ele>316</ele>
        <time>2012-09-06T19:57:10.000Z</time>
      </trkpt>
      <trkpt lat="43.5577" lon="6.9144">
        <ele>319.39999389648</ele>
        <time>2012-09-06T19:57:17.000Z</time>
      </trkpt>
      <trkpt lat="43.55786" lon="6.91416">
        <ele>320.60000610352</ele>
        <time>2012-09-06T19:57:25.000Z</time>
      </trkpt>
      <trkpt lat="43.55801" lon="6.91397">
        <ele>326</ele>
        <time>2012-09-06T19:57:32.000Z</time>
      </trkpt>
      <trkpt lat="43.55804" lon="6.9138">
        <ele>327.60000610352</ele>
        <time>2012-09-06T19:57:37.000Z</time>
      </trkpt>
      <trkpt lat="43.55803" lon="6.91377">
        <ele>327.20001220703</ele>
        <time>2012-09-06T19:57:38.000Z</time>
      </trkpt>
      <trkpt lat="43.55796" lon="6.91369">
        <ele>325</ele>
        <time>2012-09-06T19:57:41.000Z</time>
      </trkpt>
      <trkpt lat="43.55781" lon="6.91348">
        <ele>319.60000610352</ele>
        <time>2012-09-06T19:57:47.000Z</time>
      </trkpt>
      <trkpt lat="43.55779" lon="6.91321">
        <ele>321</ele>
        <time>2012-09-06T19:57:52.000Z</time>
      </trkpt>
      <trkpt lat="43.55781" lon="6.91296">
        <ele>325.79998779297</ele>
        <time>2012-09-06T19:57:57.000Z</time>
      </trkpt>
      <trkpt lat="43.55772" lon="6.91286">
        <ele>324.20001220703</ele>
        <time>2012-09-06T19:58:00.000Z</time>
      </trkpt>
      <trkpt lat="43.55761" lon="6.91286">
        <ele>320.60000610352</ele>
        <time>2012-09-06T19:58:03.000Z</time>
      </trkpt>
      <trkpt lat="43.55754" lon="6.91286">
        <ele>318.20001220703</ele>
        <time>2012-09-06T19:58:05.000Z</time>
      </trkpt>
      <trkpt lat="43.55737" lon="6.91275">
        <ele>315.60000610352</ele>
        <time>2012-09-06T19:58:10.000Z</time>
      </trkpt>
      <trkpt lat="43.55732" lon="6.91257">
        <ele>317.39999389648</ele>
        <time>2012-09-06T19:58:14.000Z</time>
      </trkpt>
      <trkpt lat="43.55728" lon="6.91237">
        <ele>319.60000610352</ele>
        <time>2012-09-06T19:58:20.000Z</time>
      </trkpt>
      <trkpt lat="43.55722" lon="6.91201">
        <ele>323.20001220703</ele>
        <time>2012-09-06T19:58:31.000Z</time>
      </trkpt>
      <trkpt lat="43.5572" lon="6.91173">
        <ele>326.79998779297</ele>
        <time>2012-09-06T19:58:40.000Z</time>
      </trkpt>
      <trkpt lat="43.55725" lon="6.91149">
        <ele>331.39999389648</ele>
        <time>2012-09-06T19:58:48.000Z</time>
      </trkpt>
      <trkpt lat="43.55729" lon="6.91125">
        <ele>335.39999389648</ele>
        <time>2012-09-06T19:58:56.000Z</time>
      </trkpt>
      <trkpt lat="43.5573" lon="6.91106">
        <ele>338.20001220703</ele>
        <time>2012-09-06T19:59:03.000Z</time>
      </trkpt>
      <trkpt lat="43.55731" lon="6.91082">
        <ele>341.39999389648</ele>
        <time>2012-09-06T19:59:11.000Z</time>
      </trkpt>
      <trkpt lat="43.55723" lon="6.9107">
        <ele>342.60000610352</ele>
        <time>2012-09-06T19:59:16.000Z</time>
      </trkpt>
      <trkpt lat="43.55713" lon="6.9107">
        <ele>340</ele>
        <time>2012-09-06T19:59:21.000Z</time>
      </trkpt>
      <trkpt lat="43.55691" lon="6.91079">
        <ele>332.20001220703</ele>
        <time>2012-09-06T19:59:31.000Z</time>
      </trkpt>
      <trkpt lat="43.55677" lon="6.91077">
        <ele>329.39999389648</ele>
        <time>2012-09-06T19:59:37.000Z</time>
      </trkpt>
      <trkpt lat="43.55668" lon="6.91061">
        <ele>331.20001220703</ele>
        <time>2012-09-06T19:59:43.000Z</time>
      </trkpt>
      <trkpt lat="43.55662" lon="6.9104">
        <ele>335.20001220703</ele>
        <time>2012-09-06T19:59:50.000Z</time>
      </trkpt>
      <trkpt lat="43.55658" lon="6.9101">
        <ele>342.20001220703</ele>
        <time>2012-09-06T20:00:00.000Z</time>
      </trkpt>
      <trkpt lat="43.5565" lon="6.90987">
        <ele>346</ele>
        <time>2012-09-06T20:00:08.000Z</time>
      </trkpt>
      <trkpt lat="43.5564" lon="6.90972">
        <ele>347.39999389648</ele>
        <time>2012-09-06T20:00:15.000Z</time>
      </trkpt>
      <trkpt lat="43.55621" lon="6.90951">
        <ele>347.39999389648</ele>
        <time>2012-09-06T20:00:26.000Z</time>
      </trkpt>
      <trkpt lat="43.55602" lon="6.90945">
        <ele>344.20001220703</ele>
        <time>2012-09-06T20:00:34.000Z</time>
      </trkpt>
      <trkpt lat="43.55588" lon="6.90934">
        <ele>343.39999389648</ele>
        <time>2012-09-06T20:00:41.000Z</time>
      </trkpt>
      <trkpt lat="43.55582" lon="6.90917">
        <ele>345.60000610352</ele>
        <time>2012-09-06T20:00:47.000Z</time>
      </trkpt>
      <trkpt lat="43.55577" lon="6.9089">
        <ele>346</ele>
        <time>2012-09-06T20:00:56.000Z</time>
      </trkpt>
      <trkpt lat="43.55574" lon="6.9087">
        <ele>346.79998779297</ele>
        <time>2012-09-06T20:01:02.000Z</time>
      </trkpt>
      <trkpt lat="43.55579" lon="6.90846">
        <ele>350</ele>
        <time>2012-09-06T20:01:10.000Z</time>
      </trkpt>
      <trkpt lat="43.55582" lon="6.90837">
        <ele>351.60000610352</ele>
        <time>2012-09-06T20:01:15.000Z</time>
      </trkpt>
      <trkpt lat="43.55583" lon="6.90838">
        <ele>351.60000610352</ele>
        <time>2012-09-06T20:01:22.000Z</time>
      </trkpt>
      <trkpt lat="43.55577" lon="6.90838">
        <ele>350</ele>
        <time>2012-09-06T20:01:27.000Z</time>
      </trkpt>
      <trkpt lat="43.55576" lon="6.90837">
        <ele>350</ele>
        <time>2012-09-06T20:01:33.000Z</time>
      </trkpt>
      <trkpt lat="43.55578" lon="6.90838">
        <ele>350.60000610352</ele>
        <time>2012-09-06T20:02:02.000Z</time>
      </trkpt>
      <trkpt lat="43.5558" lon="6.90837">
        <ele>351</ele>
        <time>2012-09-06T20:02:05.000Z</time>
      </trkpt>
      <trkpt lat="43.55581" lon="6.90837">
        <ele>351.20001220703</ele>
        <time>2012-09-06T20:02:11.000Z</time>
      </trkpt>
      <trkpt lat="43.55584" lon="6.90834">
        <ele>352</ele>
        <time>2012-09-06T20:02:27.000Z</time>
      </trkpt>
      <trkpt lat="43.55583" lon="6.90835">
        <ele>351.79998779297</ele>
        <time>2012-09-06T20:02:34.000Z</time>
      </trkpt>
      <trkpt lat="43.55583" lon="6.90834">
        <ele>352</ele>
        <time>2012-09-06T20:03:16.000Z</time>
      </trkpt>
      <trkpt lat="43.55584" lon="6.90832">
        <ele>351.79998779297</ele>
        <time>2012-09-06T20:04:48.000Z</time>
      </trkpt>
      <trkpt lat="43.55585" lon="6.90831">
        <ele>352.20001220703</ele>
        <time>2012-09-06T20:04:49.000Z</time>
      </trkpt>
      <trkpt lat="43.55596" lon="6.90825">
        <ele>353.79998779297</ele>
        <time>2012-09-06T20:04:55.000Z</time>
      </trkpt>
      <trkpt lat="43.55607" lon="6.90816">
        <ele>354.79998779297</ele>
        <time>2012-09-06T20:05:02.000Z</time>
      </trkpt>
      <trkpt lat="43.55617" lon="6.90805">
        <ele>355.20001220703</ele>
        <time>2012-09-06T20:05:09.000Z</time>
      </trkpt>
      <trkpt lat="43.55628" lon="6.90794">
        <ele>355.79998779297</ele>
        <time>2012-09-06T20:05:17.000Z</time>
      </trkpt>
      <trkpt lat="43.55638" lon="6.90785">
        <ele>356.20001220703</ele>
        <time>2012-09-06T20:05:24.000Z</time>
      </trkpt>
      <trkpt lat="43.55654" lon="6.90776">
        <ele>357.60000610352</ele>
        <time>2012-09-06T20:05:33.000Z</time>
      </trkpt>
      <trkpt lat="43.55668" lon="6.90773">
        <ele>359.60000610352</ele>
        <time>2012-09-06T20:05:41.000Z</time>
      </trkpt>
      <trkpt lat="43.55684" lon="6.9077">
        <ele>361</ele>
        <time>2012-09-06T20:05:49.000Z</time>
      </trkpt>
      <trkpt lat="43.55699" lon="6.90768">
        <ele>362.79998779297</ele>
        <time>2012-09-06T20:05:57.000Z</time>
      </trkpt>
      <trkpt lat="43.55717" lon="6.9077">
        <ele>365.39999389648</ele>
        <time>2012-09-06T20:06:06.000Z</time>
      </trkpt>
      <trkpt lat="43.55736" lon="6.90771">
        <ele>368.20001220703</ele>
        <time>2012-09-06T20:06:16.000Z</time>
      </trkpt>
      <trkpt lat="43.55749" lon="6.90776">
        <ele>371.20001220703</ele>
        <time>2012-09-06T20:06:25.000Z</time>
      </trkpt>
      <trkpt lat="43.55761" lon="6.90782">
        <ele>373</ele>
        <time>2012-09-06T20:06:34.000Z</time>
      </trkpt>
      <trkpt lat="43.55774" lon="6.90788">
        <ele>374.60000610352</ele>
        <time>2012-09-06T20:06:44.000Z</time>
      </trkpt>
      <trkpt lat="43.55785" lon="6.90791">
        <ele>375.60000610352</ele>
        <time>2012-09-06T20:06:52.000Z</time>
      </trkpt>
      <trkpt lat="43.55797" lon="6.90796">
        <ele>377</ele>
        <time>2012-09-06T20:07:01.000Z</time>
      </trkpt>
      <trkpt lat="43.55807" lon="6.90802">
        <ele>378.39999389648</ele>
        <time>2012-09-06T20:07:09.000Z</time>
      </trkpt>
      <trkpt lat="43.5582" lon="6.90809">
        <ele>380.60000610352</ele>
        <time>2012-09-06T20:07:19.000Z</time>
      </trkpt>
      <trkpt lat="43.55828" lon="6.90811">
        <ele>381.39999389648</ele>
        <time>2012-09-06T20:07:25.000Z</time>
      </trkpt>
      <trkpt lat="43.55831" lon="6.90814">
        <ele>382.20001220703</ele>
        <time>2012-09-06T20:07:28.000Z</time>
      </trkpt>
      <trkpt lat="43.55832" lon="6.90818">
        <ele>383.20001220703</ele>
        <time>2012-09-06T20:07:30.000Z</time>
      </trkpt>
      <trkpt lat="43.55834" lon="6.90833">
        <ele>386.79998779297</ele>
        <time>2012-09-06T20:07:38.000Z</time>
      </trkpt>
      <trkpt lat="43.55838" lon="6.90847">
        <ele>388.20001220703</ele>
        <time>2012-09-06T20:07:46.000Z</time>
      </trkpt>
      <trkpt lat="43.55846" lon="6.9086">
        <ele>389.60000610352</ele>
        <time>2012-09-06T20:07:54.000Z</time>
      </trkpt>
      <trkpt lat="43.55847" lon="6.90861">
        <ele>389.79998779297</ele>
        <time>2012-09-06T20:07:55.000Z</time>
      </trkpt>
      <trkpt lat="43.55855" lon="6.90863">
        <ele>390</ele>
        <time>2012-09-06T20:08:00.000Z</time>
      </trkpt>
      <trkpt lat="43.55868" lon="6.90868">
        <ele>390.39999389648</ele>
        <time>2012-09-06T20:08:08.000Z</time>
      </trkpt>
      <trkpt lat="43.55882" lon="6.9087">
        <ele>390.60000610352</ele>
        <time>2012-09-06T20:08:16.000Z</time>
      </trkpt>
      <trkpt lat="43.55892" lon="6.90873">
        <ele>391.20001220703</ele>
        <time>2012-09-06T20:08:23.000Z</time>
      </trkpt>
      <trkpt lat="43.55903" lon="6.9088">
        <ele>392.39999389648</ele>
        <time>2012-09-06T20:08:31.000Z</time>
      </trkpt>
      <trkpt lat="43.55912" lon="6.90891">
        <ele>394.60000610352</ele>
        <time>2012-09-06T20:08:39.000Z</time>
      </trkpt>
      <trkpt lat="43.55919" lon="6.909">
        <ele>396.60000610352</ele>
        <time>2012-09-06T20:08:47.000Z</time>
      </trkpt>
      <trkpt lat="43.55925" lon="6.90909">
        <ele>398.60000610352</ele>
        <time>2012-09-06T20:08:53.000Z</time>
      </trkpt>
      <trkpt lat="43.55927" lon="6.9091">
        <ele>398.79998779297</ele>
        <time>2012-09-06T20:08:54.000Z</time>
      </trkpt>
      <trkpt lat="43.55932" lon="6.90913">
        <ele>399.60000610352</ele>
        <time>2012-09-06T20:08:57.000Z</time>
      </trkpt>
      <trkpt lat="43.55943" lon="6.9092">
        <ele>401.20001220703</ele>
        <time>2012-09-06T20:09:03.000Z</time>
      </trkpt>
      <trkpt lat="43.55954" lon="6.90925">
        <ele>402.60000610352</ele>
        <time>2012-09-06T20:09:10.000Z</time>
      </trkpt>
      <trkpt lat="43.55965" lon="6.9093">
        <ele>404.20001220703</ele>
        <time>2012-09-06T20:09:17.000Z</time>
      </trkpt>
      <trkpt lat="43.55977" lon="6.90935">
        <ele>405.79998779297</ele>
        <time>2012-09-06T20:09:24.000Z</time>
      </trkpt>
      <trkpt lat="43.55998" lon="6.90941">
        <ele>408.39999389648</ele>
        <time>2012-09-06T20:09:34.000Z</time>
      </trkpt>
      <trkpt lat="43.56022" lon="6.90942">
        <ele>407.20001220703</ele>
        <time>2012-09-06T20:09:42.000Z</time>
      </trkpt>
      <trkpt lat="43.56045" lon="6.90946">
        <ele>407.20001220703</ele>
        <time>2012-09-06T20:09:50.000Z</time>
      </trkpt>
      <trkpt lat="43.56049" lon="6.90948">
        <ele>407.60000610352</ele>
        <time>2012-09-06T20:09:54.000Z</time>
      </trkpt>
      <trkpt lat="43.56049" lon="6.90947">
        <ele>407.20001220703</ele>
        <time>2012-09-06T20:10:11.000Z</time>
      </trkpt>
      <trkpt lat="43.56056" lon="6.90948">
        <ele>407.39999389648</ele>
        <time>2012-09-06T20:10:13.000Z</time>
      </trkpt>
      <trkpt lat="43.56082" lon="6.90951">
        <ele>406.79998779297</ele>
        <time>2012-09-06T20:10:18.000Z</time>
      </trkpt>
      <trkpt lat="43.56094" lon="6.90954">
        <ele>406.79998779297</ele>
        <time>2012-09-06T20:10:20.000Z</time>
      </trkpt>
      <trkpt lat="43.56099" lon="6.90956">
        <ele>407.20001220703</ele>
        <time>2012-09-06T20:10:21.000Z</time>
      </trkpt>
      <trkpt lat="43.56112" lon="6.90963">
        <ele>408.39999389648</ele>
        <time>2012-09-06T20:10:25.000Z</time>
      </trkpt>
      <trkpt lat="43.56122" lon="6.90969">
        <ele>409.20001220703</ele>
        <time>2012-09-06T20:10:29.000Z</time>
      </trkpt>
      <trkpt lat="43.56126" lon="6.90972">
        <ele>410</ele>
        <time>2012-09-06T20:10:31.000Z</time>
      </trkpt>
      <trkpt lat="43.56139" lon="6.90986">
        <ele>413.20001220703</ele>
        <time>2012-09-06T20:10:39.000Z</time>
      </trkpt>
      <trkpt lat="43.56149" lon="6.90996">
        <ele>415</ele>
        <time>2012-09-06T20:10:45.000Z</time>
      </trkpt>
      <trkpt lat="43.56162" lon="6.91002">
        <ele>415.20001220703</ele>
        <time>2012-09-06T20:10:52.000Z</time>
      </trkpt>
      <trkpt lat="43.5618" lon="6.91008">
        <ele>417.20001220703</ele>
        <time>2012-09-06T20:11:00.000Z</time>
      </trkpt>
      <trkpt lat="43.56199" lon="6.91009">
        <ele>418.39999389648</ele>
        <time>2012-09-06T20:11:08.000Z</time>
      </trkpt>
      <trkpt lat="43.56218" lon="6.91012">
        <ele>420.20001220703</ele>
        <time>2012-09-06T20:11:16.000Z</time>
      </trkpt>
      <trkpt lat="43.56242" lon="6.9102">
        <ele>423.20001220703</ele>
        <time>2012-09-06T20:11:26.000Z</time>
      </trkpt>
      <trkpt lat="43.5626" lon="6.91025">
        <ele>423.79998779297</ele>
        <time>2012-09-06T20:11:35.000Z</time>
      </trkpt>
      <trkpt lat="43.56276" lon="6.91027">
        <ele>423</ele>
        <time>2012-09-06T20:11:43.000Z</time>
      </trkpt>
      <trkpt lat="43.56281" lon="6.91026">
        <ele>422.60000610352</ele>
        <time>2012-09-06T20:11:46.000Z</time>
      </trkpt>
      <trkpt lat="43.56286" lon="6.91019">
        <ele>422</ele>
        <time>2012-09-06T20:11:49.000Z</time>
      </trkpt>
      <trkpt lat="43.56287" lon="6.91016">
        <ele>421.79998779297</ele>
        <time>2012-09-06T20:11:50.000Z</time>
      </trkpt>
      <trkpt lat="43.56298" lon="6.90996">
        <ele>421.79998779297</ele>
        <time>2012-09-06T20:11:57.000Z</time>
      </trkpt>
      <trkpt lat="43.56301" lon="6.9099">
        <ele>421.79998779297</ele>
        <time>2012-09-06T20:12:01.000Z</time>
      </trkpt>
      <trkpt lat="43.56302" lon="6.90985">
        <ele>421.79998779297</ele>
        <time>2012-09-06T20:12:41.000Z</time>
      </trkpt>
      <trkpt lat="43.56303" lon="6.90984">
        <ele>421.79998779297</ele>
        <time>2012-09-06T20:12:42.000Z</time>
      </trkpt>
      <trkpt lat="43.56304" lon="6.90982">
        <ele>422</ele>
        <time>2012-09-06T20:12:47.000Z</time>
      </trkpt>
      <trkpt lat="43.56307" lon="6.90976">
        <ele>422.20001220703</ele>
        <time>2012-09-06T20:12:51.000Z</time>
      </trkpt>
      <trkpt lat="43.56316" lon="6.90963">
        <ele>423.39999389648</ele>
        <time>2012-09-06T20:12:59.000Z</time>
      </trkpt>
      <trkpt lat="43.56325" lon="6.90952">
        <ele>425.39999389648</ele>
        <time>2012-09-06T20:13:07.000Z</time>
      </trkpt>
      <trkpt lat="43.56338" lon="6.90949">
        <ele>427.79998779297</ele>
        <time>2012-09-06T20:13:15.000Z</time>
      </trkpt>
      <trkpt lat="43.56345" lon="6.90946">
        <ele>429</ele>
        <time>2012-09-06T20:13:20.000Z</time>
      </trkpt>
      <trkpt lat="43.56346" lon="6.90946">
        <ele>429.20001220703</ele>
        <time>2012-09-06T20:13:21.000Z</time>
      </trkpt>
      <trkpt lat="43.56349" lon="6.9095">
        <ele>429.20001220703</ele>
        <time>2012-09-06T20:13:24.000Z</time>
      </trkpt>
      <trkpt lat="43.56346" lon="6.90953">
        <ele>428.39999389648</ele>
        <time>2012-09-06T20:13:27.000Z</time>
      </trkpt>
      <trkpt lat="43.56344" lon="6.90955">
        <ele>428.20001220703</ele>
        <time>2012-09-06T20:13:28.000Z</time>
      </trkpt>
      <trkpt lat="43.56333" lon="6.90967">
        <ele>425.79998779297</ele>
        <time>2012-09-06T20:13:33.000Z</time>
      </trkpt>
      <trkpt lat="43.56315" lon="6.90987">
        <ele>423.20001220703</ele>
        <time>2012-09-06T20:13:38.000Z</time>
      </trkpt>
      <trkpt lat="43.56302" lon="6.9101">
        <ele>421.79998779297</ele>
        <time>2012-09-06T20:13:42.000Z</time>
      </trkpt>
      <trkpt lat="43.56292" lon="6.91051">
        <ele>422</ele>
        <time>2012-09-06T20:13:47.000Z</time>
      </trkpt>
      <trkpt lat="43.56283" lon="6.91106">
        <ele>426.39999389648</ele>
        <time>2012-09-06T20:13:53.000Z</time>
      </trkpt>
      <trkpt lat="43.56279" lon="6.91142">
        <ele>429.60000610352</ele>
        <time>2012-09-06T20:13:57.000Z</time>
      </trkpt>
      <trkpt lat="43.56279" lon="6.91151">
        <ele>430</ele>
        <time>2012-09-06T20:13:58.000Z</time>
      </trkpt>
      <trkpt lat="43.56279" lon="6.91159">
        <ele>430.20001220703</ele>
        <time>2012-09-06T20:13:59.000Z</time>
      </trkpt>
      <trkpt lat="43.56283" lon="6.91193">
        <ele>427.39999389648</ele>
        <time>2012-09-06T20:14:03.000Z</time>
      </trkpt>
      <trkpt lat="43.56283" lon="6.91211">
        <ele>427</ele>
        <time>2012-09-06T20:14:05.000Z</time>
      </trkpt>
      <trkpt lat="43.56278" lon="6.91228">
        <ele>429</ele>
        <time>2012-09-06T20:14:07.000Z</time>
      </trkpt>
      <trkpt lat="43.56267" lon="6.91248">
        <ele>434.60000610352</ele>
        <time>2012-09-06T20:14:10.000Z</time>
      </trkpt>
      <trkpt lat="43.56263" lon="6.91255">
        <ele>436.60000610352</ele>
        <time>2012-09-06T20:14:11.000Z</time>
      </trkpt>
      <trkpt lat="43.56249" lon="6.91282">
        <ele>441.60000610352</ele>
        <time>2012-09-06T20:14:15.000Z</time>
      </trkpt>
      <trkpt lat="43.56248" lon="6.9129">
        <ele>441.39999389648</ele>
        <time>2012-09-06T20:14:16.000Z</time>
      </trkpt>
      <trkpt lat="43.5625" lon="6.91314">
        <ele>438.60000610352</ele>
        <time>2012-09-06T20:14:19.000Z</time>
      </trkpt>
      <trkpt lat="43.56262" lon="6.91343">
        <ele>431.79998779297</ele>
        <time>2012-09-06T20:14:23.000Z</time>
      </trkpt>
      <trkpt lat="43.56286" lon="6.91385">
        <ele>424.60000610352</ele>
        <time>2012-09-06T20:14:29.000Z</time>
      </trkpt>
      <trkpt lat="43.56302" lon="6.91405">
        <ele>421</ele>
        <time>2012-09-06T20:14:32.000Z</time>
      </trkpt>
      <trkpt lat="43.56309" lon="6.91424">
        <ele>419.60000610352</ele>
        <time>2012-09-06T20:14:34.000Z</time>
      </trkpt>
      <trkpt lat="43.56307" lon="6.9146">
        <ele>418.60000610352</ele>
        <time>2012-09-06T20:14:37.000Z</time>
      </trkpt>
      <trkpt lat="43.563" lon="6.91484">
        <ele>418.79998779297</ele>
        <time>2012-09-06T20:14:39.000Z</time>
      </trkpt>
      <trkpt lat="43.56293" lon="6.91505">
        <ele>418.20001220703</ele>
        <time>2012-09-06T20:14:41.000Z</time>
      </trkpt>
      <trkpt lat="43.56288" lon="6.9152">
        <ele>417</ele>
        <time>2012-09-06T20:14:43.000Z</time>
      </trkpt>
      <trkpt lat="43.56284" lon="6.91526">
        <ele>416.60000610352</ele>
        <time>2012-09-06T20:14:44.000Z</time>
      </trkpt>
      <trkpt lat="43.56263" lon="6.9154">
        <ele>416.60000610352</ele>
        <time>2012-09-06T20:14:48.000Z</time>
      </trkpt>
      <trkpt lat="43.56258" lon="6.91543">
        <ele>416.60000610352</ele>
        <time>2012-09-06T20:14:49.000Z</time>
      </trkpt>
      <trkpt lat="43.56249" lon="6.91551">
        <ele>415.60000610352</ele>
        <time>2012-09-06T20:14:52.000Z</time>
      </trkpt>
      <trkpt lat="43.5625" lon="6.91549">
        <ele>416</ele>
        <time>2012-09-06T20:14:57.000Z</time>
      </trkpt>
      <trkpt lat="43.56247" lon="6.91551">
        <ele>415.20001220703</ele>
        <time>2012-09-06T20:16:46.000Z</time>
      </trkpt>
      <trkpt lat="43.56241" lon="6.91553">
        <ele>413.60000610352</ele>
        <time>2012-09-06T20:16:49.000Z</time>
      </trkpt>
      <trkpt lat="43.56229" lon="6.91562">
        <ele>409.39999389648</ele>
        <time>2012-09-06T20:16:53.000Z</time>
      </trkpt>
      <trkpt lat="43.56226" lon="6.91563">
        <ele>408.60000610352</ele>
        <time>2012-09-06T20:16:54.000Z</time>
      </trkpt>
      <trkpt lat="43.56218" lon="6.91561">
        <ele>407.39999389648</ele>
        <time>2012-09-06T20:16:56.000Z</time>
      </trkpt>
      <trkpt lat="43.56201" lon="6.91566">
        <ele>402.79998779297</ele>
        <time>2012-09-06T20:17:00.000Z</time>
      </trkpt>
      <trkpt lat="43.56189" lon="6.91568">
        <ele>399.79998779297</ele>
        <time>2012-09-06T20:17:04.000Z</time>
      </trkpt>
      <trkpt lat="43.56184" lon="6.91569">
        <ele>398.60000610352</ele>
        <time>2012-09-06T20:17:09.000Z</time>
      </trkpt>
      <trkpt lat="43.56176" lon="6.91566">
        <ele>397.39999389648</ele>
        <time>2012-09-06T20:17:13.000Z</time>
      </trkpt>
      <trkpt lat="43.56166" lon="6.91549">
        <ele>400</ele>
        <time>2012-09-06T20:17:17.000Z</time>
      </trkpt>
      <trkpt lat="43.56155" lon="6.91537">
        <ele>402.20001220703</ele>
        <time>2012-09-06T20:17:21.000Z</time>
      </trkpt>
      <trkpt lat="43.56139" lon="6.91531">
        <ele>402.79998779297</ele>
        <time>2012-09-06T20:17:26.000Z</time>
      </trkpt>
      <trkpt lat="43.56112" lon="6.91527">
        <ele>401.79998779297</ele>
        <time>2012-09-06T20:17:31.000Z</time>
      </trkpt>
      <trkpt lat="43.56092" lon="6.91532">
        <ele>399</ele>
        <time>2012-09-06T20:17:35.000Z</time>
      </trkpt>
      <trkpt lat="43.56088" lon="6.91535">
        <ele>398.20001220703</ele>
        <time>2012-09-06T20:17:36.000Z</time>
      </trkpt>
      <trkpt lat="43.56076" lon="6.91548">
        <ele>393.39999389648</ele>
        <time>2012-09-06T20:17:39.000Z</time>
      </trkpt>
      <trkpt lat="43.56066" lon="6.91556">
        <ele>390.60000610352</ele>
        <time>2012-09-06T20:17:41.000Z</time>
      </trkpt>
      <trkpt lat="43.56058" lon="6.91563">
        <ele>387.79998779297</ele>
        <time>2012-09-06T20:17:43.000Z</time>
      </trkpt>
      <trkpt lat="43.5605" lon="6.91571">
        <ele>385.20001220703</ele>
        <time>2012-09-06T20:17:45.000Z</time>
      </trkpt>
      <trkpt lat="43.56048" lon="6.91574">
        <ele>384.20001220703</ele>
        <time>2012-09-06T20:17:46.000Z</time>
      </trkpt>
      <trkpt lat="43.56034" lon="6.91575">
        <ele>382.79998779297</ele>
        <time>2012-09-06T20:17:50.000Z</time>
      </trkpt>
      <trkpt lat="43.56025" lon="6.91568">
        <ele>383.39999389648</ele>
        <time>2012-09-06T20:17:53.000Z</time>
      </trkpt>
      <trkpt lat="43.56015" lon="6.91569">
        <ele>382.20001220703</ele>
        <time>2012-09-06T20:17:56.000Z</time>
      </trkpt>
      <trkpt lat="43.56006" lon="6.9156">
        <ele>383</ele>
        <time>2012-09-06T20:17:59.000Z</time>
      </trkpt>
      <trkpt lat="43.55999" lon="6.91553">
        <ele>383.60000610352</ele>
        <time>2012-09-06T20:18:01.000Z</time>
      </trkpt>
      <trkpt lat="43.55983" lon="6.91545">
        <ele>382</ele>
        <time>2012-09-06T20:18:05.000Z</time>
      </trkpt>
      <trkpt lat="43.55971" lon="6.91541">
        <ele>380</ele>
        <time>2012-09-06T20:18:08.000Z</time>
      </trkpt>
      <trkpt lat="43.55964" lon="6.91534">
        <ele>379.60000610352</ele>
        <time>2012-09-06T20:18:10.000Z</time>
      </trkpt>
      <trkpt lat="43.55962" lon="6.91529">
        <ele>379.79998779297</ele>
        <time>2012-09-06T20:18:11.000Z</time>
      </trkpt>
      <trkpt lat="43.55955" lon="6.91525">
        <ele>379</ele>
        <time>2012-09-06T20:18:14.000Z</time>
      </trkpt>
      <trkpt lat="43.55944" lon="6.91512">
        <ele>378.20001220703</ele>
        <time>2012-09-06T20:18:18.000Z</time>
      </trkpt>
      <trkpt lat="43.55934" lon="6.91509">
        <ele>376.20001220703</ele>
        <time>2012-09-06T20:18:21.000Z</time>
      </trkpt>
      <trkpt lat="43.55922" lon="6.91514">
        <ele>372.79998779297</ele>
        <time>2012-09-06T20:18:25.000Z</time>
      </trkpt>
      <trkpt lat="43.55915" lon="6.91513">
        <ele>371.20001220703</ele>
        <time>2012-09-06T20:18:28.000Z</time>
      </trkpt>
      <trkpt lat="43.5591" lon="6.91503">
        <ele>370.60000610352</ele>
        <time>2012-09-06T20:18:32.000Z</time>
      </trkpt>
      <trkpt lat="43.55903" lon="6.91506">
        <ele>368.39999389648</ele>
        <time>2012-09-06T20:18:35.000Z</time>
      </trkpt>
      <trkpt lat="43.55896" lon="6.91508">
        <ele>366.20001220703</ele>
        <time>2012-09-06T20:18:37.000Z</time>
      </trkpt>
      <trkpt lat="43.55888" lon="6.91514">
        <ele>363.79998779297</ele>
        <time>2012-09-06T20:18:40.000Z</time>
      </trkpt>
      <trkpt lat="43.55882" lon="6.91529">
        <ele>361.39999389648</ele>
        <time>2012-09-06T20:18:44.000Z</time>
      </trkpt>
      <trkpt lat="43.55876" lon="6.91538">
        <ele>359.60000610352</ele>
        <time>2012-09-06T20:18:47.000Z</time>
      </trkpt>
      <trkpt lat="43.55873" lon="6.91538">
        <ele>358.79998779297</ele>
        <time>2012-09-06T20:18:48.000Z</time>
      </trkpt>
      <trkpt lat="43.55866" lon="6.91547">
        <ele>357.20001220703</ele>
        <time>2012-09-06T20:18:51.000Z</time>
      </trkpt>
      <trkpt lat="43.55855" lon="6.91549">
        <ele>354.79998779297</ele>
        <time>2012-09-06T20:18:55.000Z</time>
      </trkpt>
      <trkpt lat="43.55848" lon="6.91553">
        <ele>353.60000610352</ele>
        <time>2012-09-06T20:18:58.000Z</time>
      </trkpt>
      <trkpt lat="43.55837" lon="6.91556">
        <ele>351.39999389648</ele>
        <time>2012-09-06T20:19:02.000Z</time>
      </trkpt>
      <trkpt lat="43.55835" lon="6.91548">
        <ele>350.60000610352</ele>
        <time>2012-09-06T20:19:05.000Z</time>
      </trkpt>
      <trkpt lat="43.5583" lon="6.91543">
        <ele>349.20001220703</ele>
        <time>2012-09-06T20:19:08.000Z</time>
      </trkpt>
      <trkpt lat="43.55823" lon="6.91549">
        <ele>347.79998779297</ele>
        <time>2012-09-06T20:19:11.000Z</time>
      </trkpt>
      <trkpt lat="43.5581" lon="6.91567">
        <ele>345.79998779297</ele>
        <time>2012-09-06T20:19:16.000Z</time>
      </trkpt>
      <trkpt lat="43.55805" lon="6.91572">
        <ele>344.79998779297</ele>
        <time>2012-09-06T20:19:18.000Z</time>
      </trkpt>
      <trkpt lat="43.55802" lon="6.9157">
        <ele>344</ele>
        <time>2012-09-06T20:19:19.000Z</time>
      </trkpt>
      <trkpt lat="43.55796" lon="6.9156">
        <ele>341.79998779297</ele>
        <time>2012-09-06T20:19:22.000Z</time>
      </trkpt>
      <trkpt lat="43.55785" lon="6.91566">
        <ele>339.60000610352</ele>
        <time>2012-09-06T20:19:25.000Z</time>
      </trkpt>
      <trkpt lat="43.55777" lon="6.9158">
        <ele>338.79998779297</ele>
        <time>2012-09-06T20:19:29.000Z</time>
      </trkpt>
      <trkpt lat="43.55776" lon="6.9159">
        <ele>338.20001220703</ele>
        <time>2012-09-06T20:19:31.000Z</time>
      </trkpt>
      <trkpt lat="43.55774" lon="6.91601">
        <ele>336.39999389648</ele>
        <time>2012-09-06T20:19:33.000Z</time>
      </trkpt>
      <trkpt lat="43.55772" lon="6.91629">
        <ele>332.60000610352</ele>
        <time>2012-09-06T20:19:37.000Z</time>
      </trkpt>
      <trkpt lat="43.55761" lon="6.91647">
        <ele>329.60000610352</ele>
        <time>2012-09-06T20:19:40.000Z</time>
      </trkpt>
      <trkpt lat="43.55753" lon="6.9166">
        <ele>327.60000610352</ele>
        <time>2012-09-06T20:19:42.000Z</time>
      </trkpt>
      <trkpt lat="43.55748" lon="6.91673">
        <ele>325.39999389648</ele>
        <time>2012-09-06T20:19:44.000Z</time>
      </trkpt>
      <trkpt lat="43.55748" lon="6.91692">
        <ele>323</ele>
        <time>2012-09-06T20:19:47.000Z</time>
      </trkpt>
      <trkpt lat="43.5574" lon="6.91706">
        <ele>320.20001220703</ele>
        <time>2012-09-06T20:19:50.000Z</time>
      </trkpt>
      <trkpt lat="43.55735" lon="6.9171">
        <ele>319.20001220703</ele>
        <time>2012-09-06T20:19:51.000Z</time>
      </trkpt>
      <trkpt lat="43.5573" lon="6.91714">
        <ele>318.39999389648</ele>
        <time>2012-09-06T20:19:52.000Z</time>
      </trkpt>
      <trkpt lat="43.55719" lon="6.91721">
        <ele>317.20001220703</ele>
        <time>2012-09-06T20:19:54.000Z</time>
      </trkpt>
      <trkpt lat="43.55707" lon="6.91727">
        <ele>316.39999389648</ele>
        <time>2012-09-06T20:19:56.000Z</time>
      </trkpt>
      <trkpt lat="43.5569" lon="6.91732">
        <ele>316</ele>
        <time>2012-09-06T20:19:59.000Z</time>
      </trkpt>
      <trkpt lat="43.55664" lon="6.91742">
        <ele>316.39999389648</ele>
        <time>2012-09-06T20:20:04.000Z</time>
      </trkpt>
      <trkpt lat="43.55659" lon="6.91743">
        <ele>315.60000610352</ele>
        <time>2012-09-06T20:20:05.000Z</time>
      </trkpt>
      <trkpt lat="43.55648" lon="6.91738">
        <ele>313.39999389648</ele>
        <time>2012-09-06T20:20:07.000Z</time>
      </trkpt>
      <trkpt lat="43.55634" lon="6.91733">
        <ele>310.39999389648</ele>
        <time>2012-09-06T20:20:10.000Z</time>
      </trkpt>
      <trkpt lat="43.55624" lon="6.9173">
        <ele>308.20001220703</ele>
        <time>2012-09-06T20:20:12.000Z</time>
      </trkpt>
      <trkpt lat="43.55619" lon="6.9173">
        <ele>307.39999389648</ele>
        <time>2012-09-06T20:20:13.000Z</time>
      </trkpt>
      <trkpt lat="43.55613" lon="6.91733">
        <ele>307</ele>
        <time>2012-09-06T20:20:15.000Z</time>
      </trkpt>
      <trkpt lat="43.556" lon="6.91746">
        <ele>306.79998779297</ele>
        <time>2012-09-06T20:20:19.000Z</time>
      </trkpt>
      <trkpt lat="43.55588" lon="6.91755">
        <ele>305.60000610352</ele>
        <time>2012-09-06T20:20:22.000Z</time>
      </trkpt>
      <trkpt lat="43.55581" lon="6.91764">
        <ele>304.20001220703</ele>
        <time>2012-09-06T20:20:24.000Z</time>
      </trkpt>
      <trkpt lat="43.55575" lon="6.91774">
        <ele>302.60000610352</ele>
        <time>2012-09-06T20:20:26.000Z</time>
      </trkpt>
      <trkpt lat="43.55572" lon="6.91784">
        <ele>301.60000610352</ele>
        <time>2012-09-06T20:20:28.000Z</time>
      </trkpt>
      <trkpt lat="43.55569" lon="6.91796">
        <ele>300.79998779297</ele>
        <time>2012-09-06T20:20:30.000Z</time>
      </trkpt>
      <trkpt lat="43.55564" lon="6.91807">
        <ele>300</ele>
        <time>2012-09-06T20:20:32.000Z</time>
      </trkpt>
      <trkpt lat="43.55552" lon="6.91812">
        <ele>297.60000610352</ele>
        <time>2012-09-06T20:20:35.000Z</time>
      </trkpt>
      <trkpt lat="43.55543" lon="6.91818">
        <ele>296</ele>
        <time>2012-09-06T20:20:39.000Z</time>
      </trkpt>
      <trkpt lat="43.55541" lon="6.91838">
        <ele>295.20001220703</ele>
        <time>2012-09-06T20:20:43.000Z</time>
      </trkpt>
      <trkpt lat="43.55529" lon="6.91854">
        <ele>292</ele>
        <time>2012-09-06T20:20:47.000Z</time>
      </trkpt>
      <trkpt lat="43.55517" lon="6.91848">
        <ele>290.79998779297</ele>
        <time>2012-09-06T20:20:50.000Z</time>
      </trkpt>
      <trkpt lat="43.55512" lon="6.91853">
        <ele>289.79998779297</ele>
        <time>2012-09-06T20:20:53.000Z</time>
      </trkpt>
      <trkpt lat="43.55511" lon="6.91856">
        <ele>289.39999389648</ele>
        <time>2012-09-06T20:20:54.000Z</time>
      </trkpt>
      <trkpt lat="43.5551" lon="6.91857">
        <ele>289.20001220703</ele>
        <time>2012-09-06T20:20:55.000Z</time>
      </trkpt>
      <trkpt lat="43.5551" lon="6.91858">
        <ele>289</ele>
        <time>2012-09-06T20:20:57.000Z</time>
      </trkpt>
      <trkpt lat="43.55507" lon="6.91867">
        <ele>288.20001220703</ele>
        <time>2012-09-06T20:21:29.000Z</time>
      </trkpt>
      <trkpt lat="43.55499" lon="6.91887">
        <ele>286.39999389648</ele>
        <time>2012-09-06T20:21:33.000Z</time>
      </trkpt>
      <trkpt lat="43.55487" lon="6.91918">
        <ele>287.39999389648</ele>
        <time>2012-09-06T20:21:38.000Z</time>
      </trkpt>
      <trkpt lat="43.55484" lon="6.91928">
        <ele>286.79998779297</ele>
        <time>2012-09-06T20:21:40.000Z</time>
      </trkpt>
      <trkpt lat="43.55482" lon="6.91939">
        <ele>286.20001220703</ele>
        <time>2012-09-06T20:21:42.000Z</time>
      </trkpt>
      <trkpt lat="43.55483" lon="6.91952">
        <ele>284.79998779297</ele>
        <time>2012-09-06T20:21:44.000Z</time>
      </trkpt>
      <trkpt lat="43.55487" lon="6.91962">
        <ele>283</ele>
        <time>2012-09-06T20:21:46.000Z</time>
      </trkpt>
      <trkpt lat="43.55485" lon="6.91976">
        <ele>282</ele>
        <time>2012-09-06T20:21:49.000Z</time>
      </trkpt>
      <trkpt lat="43.55491" lon="6.91985">
        <ele>279.39999389648</ele>
        <time>2012-09-06T20:21:52.000Z</time>
      </trkpt>
      <trkpt lat="43.55493" lon="6.92005">
        <ele>276.20001220703</ele>
        <time>2012-09-06T20:21:55.000Z</time>
      </trkpt>
      <trkpt lat="43.55494" lon="6.92036">
        <ele>270.79998779297</ele>
        <time>2012-09-06T20:21:59.000Z</time>
      </trkpt>
      <trkpt lat="43.55494" lon="6.92045">
        <ele>269.39999389648</ele>
        <time>2012-09-06T20:22:00.000Z</time>
      </trkpt>
      <trkpt lat="43.55492" lon="6.9207">
        <ele>265.79998779297</ele>
        <time>2012-09-06T20:22:03.000Z</time>
      </trkpt>
      <trkpt lat="43.55491" lon="6.92075">
        <ele>265.20001220703</ele>
        <time>2012-09-06T20:22:04.000Z</time>
      </trkpt>
      <trkpt lat="43.55493" lon="6.92083">
        <ele>263.20001220703</ele>
        <time>2012-09-06T20:22:06.000Z</time>
      </trkpt>
      <trkpt lat="43.55494" lon="6.92102">
        <ele>259.60000610352</ele>
        <time>2012-09-06T20:22:09.000Z</time>
      </trkpt>
      <trkpt lat="43.55493" lon="6.9211">
        <ele>258.79998779297</ele>
        <time>2012-09-06T20:22:11.000Z</time>
      </trkpt>
      <trkpt lat="43.55493" lon="6.92112">
        <ele>258.39999389648</ele>
        <time>2012-09-06T20:22:12.000Z</time>
      </trkpt>
      <trkpt lat="43.55498" lon="6.92126">
        <ele>254.80000305176</ele>
        <time>2012-09-06T20:22:15.000Z</time>
      </trkpt>
      <trkpt lat="43.55498" lon="6.92139">
        <ele>252.80000305176</ele>
        <time>2012-09-06T20:22:18.000Z</time>
      </trkpt>
      <trkpt lat="43.55506" lon="6.92132">
        <ele>252</ele>
        <time>2012-09-06T20:22:21.000Z</time>
      </trkpt>
      <trkpt lat="43.55521" lon="6.92115">
        <ele>251</ele>
        <time>2012-09-06T20:22:25.000Z</time>
      </trkpt>
      <trkpt lat="43.5553" lon="6.92084">
        <ele>253</ele>
        <time>2012-09-06T20:22:29.000Z</time>
      </trkpt>
      <trkpt lat="43.55541" lon="6.92053">
        <ele>256.39999389648</ele>
        <time>2012-09-06T20:22:33.000Z</time>
      </trkpt>
      <trkpt lat="43.55546" lon="6.92048">
        <ele>256.20001220703</ele>
        <time>2012-09-06T20:22:34.000Z</time>
      </trkpt>
      <trkpt lat="43.55563" lon="6.92038">
        <ele>254.39999389648</ele>
        <time>2012-09-06T20:22:37.000Z</time>
      </trkpt>
      <trkpt lat="43.55568" lon="6.92036">
        <ele>253.80000305176</ele>
        <time>2012-09-06T20:22:38.000Z</time>
      </trkpt>
      <trkpt lat="43.55572" lon="6.92035">
        <ele>253.19999694824</ele>
        <time>2012-09-06T20:22:39.000Z</time>
      </trkpt>
      <trkpt lat="43.55576" lon="6.92034">
        <ele>252.60000610352</ele>
        <time>2012-09-06T20:22:41.000Z</time>
      </trkpt>
      <trkpt lat="43.55578" lon="6.92033">
        <ele>252.19999694824</ele>
        <time>2012-09-06T20:22:45.000Z</time>
      </trkpt>
      <trkpt lat="43.55587" lon="6.92031">
        <ele>251.60000610352</ele>
        <time>2012-09-06T20:22:50.000Z</time>
      </trkpt>
      <trkpt lat="43.55605" lon="6.92027">
        <ele>252.39999389648</ele>
        <time>2012-09-06T20:22:55.000Z</time>
      </trkpt>
      <trkpt lat="43.55611" lon="6.92029">
        <ele>252.19999694824</ele>
        <time>2012-09-06T20:22:57.000Z</time>
      </trkpt>
      <trkpt lat="43.5561" lon="6.92032">
        <ele>251.39999389648</ele>
        <time>2012-09-06T20:22:58.000Z</time>
      </trkpt>
      <trkpt lat="43.55612" lon="6.9204">
        <ele>249.80000305176</ele>
        <time>2012-09-06T20:23:01.000Z</time>
      </trkpt>
      <trkpt lat="43.55619" lon="6.92049">
        <ele>248</ele>
        <time>2012-09-06T20:23:05.000Z</time>
      </trkpt>
      <trkpt lat="43.5563" lon="6.9206">
        <ele>245.80000305176</ele>
        <time>2012-09-06T20:23:09.000Z</time>
      </trkpt>
      <trkpt lat="43.55642" lon="6.9207">
        <ele>244.39999389648</ele>
        <time>2012-09-06T20:23:12.000Z</time>
      </trkpt>
      <trkpt lat="43.55638" lon="6.92084">
        <ele>241.60000610352</ele>
        <time>2012-09-06T20:23:15.000Z</time>
      </trkpt>
      <trkpt lat="43.5562" lon="6.92095">
        <ele>240</ele>
        <time>2012-09-06T20:23:19.000Z</time>
      </trkpt>
      <trkpt lat="43.55611" lon="6.92113">
        <ele>237.80000305176</ele>
        <time>2012-09-06T20:23:22.000Z</time>
      </trkpt>
      <trkpt lat="43.55612" lon="6.92138">
        <ele>235.80000305176</ele>
        <time>2012-09-06T20:23:25.000Z</time>
      </trkpt>
      <trkpt lat="43.55621" lon="6.92167">
        <ele>234.39999389648</ele>
        <time>2012-09-06T20:23:29.000Z</time>
      </trkpt>
      <trkpt lat="43.55623" lon="6.92173">
        <ele>234</ele>
        <time>2012-09-06T20:23:30.000Z</time>
      </trkpt>
      <trkpt lat="43.55633" lon="6.92201">
        <ele>232</ele>
        <time>2012-09-06T20:23:34.000Z</time>
      </trkpt>
      <trkpt lat="43.55644" lon="6.92218">
        <ele>231.19999694824</ele>
        <time>2012-09-06T20:23:37.000Z</time>
      </trkpt>
      <trkpt lat="43.55648" lon="6.92227">
        <ele>230.39999389648</ele>
        <time>2012-09-06T20:23:39.000Z</time>
      </trkpt>
      <trkpt lat="43.55649" lon="6.92233">
        <ele>229.80000305176</ele>
        <time>2012-09-06T20:23:40.000Z</time>
      </trkpt>
      <trkpt lat="43.5565" lon="6.92239">
        <ele>229.19999694824</ele>
        <time>2012-09-06T20:23:41.000Z</time>
      </trkpt>
      <trkpt lat="43.55656" lon="6.92259">
        <ele>226</ele>
        <time>2012-09-06T20:23:44.000Z</time>
      </trkpt>
      <trkpt lat="43.55659" lon="6.92266">
        <ele>224.80000305176</ele>
        <time>2012-09-06T20:23:45.000Z</time>
      </trkpt>
      <trkpt lat="43.55668" lon="6.92281">
        <ele>221.80000305176</ele>
        <time>2012-09-06T20:23:48.000Z</time>
      </trkpt>
      <trkpt lat="43.55664" lon="6.92294">
        <ele>218.39999389648</ele>
        <time>2012-09-06T20:23:51.000Z</time>
      </trkpt>
      <trkpt lat="43.55653" lon="6.92308">
        <ele>214.80000305176</ele>
        <time>2012-09-06T20:23:54.000Z</time>
      </trkpt>
      <trkpt lat="43.55636" lon="6.92322">
        <ele>211.19999694824</ele>
        <time>2012-09-06T20:23:58.000Z</time>
      </trkpt>
      <trkpt lat="43.55632" lon="6.92314">
        <ele>212.80000305176</ele>
        <time>2012-09-06T20:24:01.000Z</time>
      </trkpt>
      <trkpt lat="43.55632" lon="6.92291">
        <ele>217.80000305176</ele>
        <time>2012-09-06T20:24:05.000Z</time>
      </trkpt>
      <trkpt lat="43.5562" lon="6.92263">
        <ele>223</ele>
        <time>2012-09-06T20:24:09.000Z</time>
      </trkpt>
      <trkpt lat="43.55608" lon="6.92258">
        <ele>223.19999694824</ele>
        <time>2012-09-06T20:24:12.000Z</time>
      </trkpt>
      <trkpt lat="43.556" lon="6.9227">
        <ele>220.39999389648</ele>
        <time>2012-09-06T20:24:15.000Z</time>
      </trkpt>
      <trkpt lat="43.55597" lon="6.92275">
        <ele>219.39999389648</ele>
        <time>2012-09-06T20:24:16.000Z</time>
      </trkpt>
      <trkpt lat="43.55581" lon="6.92296">
        <ele>214.80000305176</ele>
        <time>2012-09-06T20:24:20.000Z</time>
      </trkpt>
      <trkpt lat="43.55572" lon="6.9231">
        <ele>212.80000305176</ele>
        <time>2012-09-06T20:24:22.000Z</time>
      </trkpt>
      <trkpt lat="43.55562" lon="6.92325">
        <ele>210</ele>
        <time>2012-09-06T20:24:24.000Z</time>
      </trkpt>
      <trkpt lat="43.55552" lon="6.92338">
        <ele>206.60000610352</ele>
        <time>2012-09-06T20:24:26.000Z</time>
      </trkpt>
      <trkpt lat="43.55546" lon="6.92347">
        <ele>203.60000610352</ele>
        <time>2012-09-06T20:24:28.000Z</time>
      </trkpt>
      <trkpt lat="43.55536" lon="6.92355">
        <ele>200.80000305176</ele>
        <time>2012-09-06T20:24:31.000Z</time>
      </trkpt>
      <trkpt lat="43.55522" lon="6.92348">
        <ele>203.39999389648</ele>
        <time>2012-09-06T20:24:34.000Z</time>
      </trkpt>
      <trkpt lat="43.55503" lon="6.92347">
        <ele>204</ele>
        <time>2012-09-06T20:24:38.000Z</time>
      </trkpt>
      <trkpt lat="43.55498" lon="6.92349">
        <ele>203.60000610352</ele>
        <time>2012-09-06T20:24:39.000Z</time>
      </trkpt>
      <trkpt lat="43.55494" lon="6.92349">
        <ele>203.80000305176</ele>
        <time>2012-09-06T20:24:40.000Z</time>
      </trkpt>
      <trkpt lat="43.55485" lon="6.92351">
        <ele>204.19999694824</ele>
        <time>2012-09-06T20:24:42.000Z</time>
      </trkpt>
      <trkpt lat="43.5548" lon="6.92351">
        <ele>204.80000305176</ele>
        <time>2012-09-06T20:24:43.000Z</time>
      </trkpt>
      <trkpt lat="43.55475" lon="6.92347">
        <ele>206.80000305176</ele>
        <time>2012-09-06T20:24:45.000Z</time>
      </trkpt>
      <trkpt lat="43.55461" lon="6.92339">
        <ele>210.80000305176</ele>
        <time>2012-09-06T20:24:49.000Z</time>
      </trkpt>
      <trkpt lat="43.55452" lon="6.92348">
        <ele>208.80000305176</ele>
        <time>2012-09-06T20:24:52.000Z</time>
      </trkpt>
      <trkpt lat="43.55443" lon="6.92354">
        <ele>207.80000305176</ele>
        <time>2012-09-06T20:24:55.000Z</time>
      </trkpt>
      <trkpt lat="43.55441" lon="6.92364">
        <ele>204.60000610352</ele>
        <time>2012-09-06T20:24:58.000Z</time>
      </trkpt>
      <trkpt lat="43.55437" lon="6.92376">
        <ele>201.39999389648</ele>
        <time>2012-09-06T20:25:01.000Z</time>
      </trkpt>
      <trkpt lat="43.55435" lon="6.92379">
        <ele>200.19999694824</ele>
        <time>2012-09-06T20:25:02.000Z</time>
      </trkpt>
      <trkpt lat="43.55433" lon="6.92398">
        <ele>194.60000610352</ele>
        <time>2012-09-06T20:25:05.000Z</time>
      </trkpt>
      <trkpt lat="43.55421" lon="6.92421">
        <ele>188.80000305176</ele>
        <time>2012-09-06T20:25:08.000Z</time>
      </trkpt>
      <trkpt lat="43.55398" lon="6.92462">
        <ele>180.80000305176</ele>
        <time>2012-09-06T20:25:13.000Z</time>
      </trkpt>
      <trkpt lat="43.55383" lon="6.92496">
        <ele>175.19999694824</ele>
        <time>2012-09-06T20:25:17.000Z</time>
      </trkpt>
      <trkpt lat="43.55379" lon="6.92505">
        <ele>173.60000610352</ele>
        <time>2012-09-06T20:25:18.000Z</time>
      </trkpt>
      <trkpt lat="43.55376" lon="6.92524">
        <ele>169.19999694824</ele>
        <time>2012-09-06T20:25:20.000Z</time>
      </trkpt>
      <trkpt lat="43.55373" lon="6.92533">
        <ele>167.39999389648</ele>
        <time>2012-09-06T20:25:21.000Z</time>
      </trkpt>
      <trkpt lat="43.55363" lon="6.92556">
        <ele>164</ele>
        <time>2012-09-06T20:25:24.000Z</time>
      </trkpt>
      <trkpt lat="43.55359" lon="6.92559">
        <ele>164</ele>
        <time>2012-09-06T20:25:27.000Z</time>
      </trkpt>
      <trkpt lat="43.55361" lon="6.92558">
        <ele>163.80000305176</ele>
        <time>2012-09-06T20:25:29.000Z</time>
      </trkpt>
      <trkpt lat="43.55361" lon="6.92557">
        <ele>164</ele>
        <time>2012-09-06T20:25:31.000Z</time>
      </trkpt>
      <trkpt lat="43.55362" lon="6.92556">
        <ele>164.19999694824</ele>
        <time>2012-09-06T20:25:32.000Z</time>
      </trkpt>
      <trkpt lat="43.55362" lon="6.92554">
        <ele>164.60000610352</ele>
        <time>2012-09-06T20:25:34.000Z</time>
      </trkpt>
      <trkpt lat="43.55359" lon="6.92554">
        <ele>165.39999389648</ele>
        <time>2012-09-06T20:25:36.000Z</time>
      </trkpt>
      <trkpt lat="43.55352" lon="6.92558">
        <ele>166.19999694824</ele>
        <time>2012-09-06T20:25:41.000Z</time>
      </trkpt>
      <trkpt lat="43.55349" lon="6.92563">
        <ele>166</ele>
        <time>2012-09-06T20:25:44.000Z</time>
      </trkpt>
      <trkpt lat="43.55334" lon="6.9258">
        <ele>165.60000610352</ele>
        <time>2012-09-06T20:25:49.000Z</time>
      </trkpt>
      <trkpt lat="43.55318" lon="6.92589">
        <ele>163</ele>
        <time>2012-09-06T20:25:53.000Z</time>
      </trkpt>
      <trkpt lat="43.55314" lon="6.92592">
        <ele>162.19999694824</ele>
        <time>2012-09-06T20:25:55.000Z</time>
      </trkpt>
      <trkpt lat="43.55315" lon="6.92595">
        <ele>161.39999389648</ele>
        <time>2012-09-06T20:25:56.000Z</time>
      </trkpt>
      <trkpt lat="43.55324" lon="6.92599">
        <ele>161</ele>
        <time>2012-09-06T20:25:59.000Z</time>
      </trkpt>
      <trkpt lat="43.55327" lon="6.92598">
        <ele>161.19999694824</ele>
        <time>2012-09-06T20:26:00.000Z</time>
      </trkpt>
      <trkpt lat="43.55329" lon="6.92599">
        <ele>161</ele>
        <time>2012-09-06T20:26:01.000Z</time>
      </trkpt>
      <trkpt lat="43.55329" lon="6.926">
        <ele>160.80000305176</ele>
        <time>2012-09-06T20:26:02.000Z</time>
      </trkpt>
      <trkpt lat="43.55329" lon="6.92609">
        <ele>158.60000610352</ele>
        <time>2012-09-06T20:26:06.000Z</time>
      </trkpt>
      <trkpt lat="43.55332" lon="6.92622">
        <ele>155.60000610352</ele>
        <time>2012-09-06T20:26:10.000Z</time>
      </trkpt>
      <trkpt lat="43.55323" lon="6.92631">
        <ele>153.39999389648</ele>
        <time>2012-09-06T20:26:13.000Z</time>
      </trkpt>
      <trkpt lat="43.5532" lon="6.92633">
        <ele>153</ele>
        <time>2012-09-06T20:26:14.000Z</time>
      </trkpt>
      <trkpt lat="43.55315" lon="6.92634">
        <ele>152.60000610352</ele>
        <time>2012-09-06T20:26:16.000Z</time>
      </trkpt>
      <trkpt lat="43.55315" lon="6.92636">
        <ele>152.19999694824</ele>
        <time>2012-09-06T20:26:17.000Z</time>
      </trkpt>
      <trkpt lat="43.55322" lon="6.92646">
        <ele>150</ele>
        <time>2012-09-06T20:26:20.000Z</time>
      </trkpt>
      <trkpt lat="43.55328" lon="6.9265">
        <ele>149</ele>
        <time>2012-09-06T20:26:23.000Z</time>
      </trkpt>
      <trkpt lat="43.55339" lon="6.92654">
        <ele>146.39999389648</ele>
        <time>2012-09-06T20:26:26.000Z</time>
      </trkpt>
      <trkpt lat="43.55339" lon="6.92665">
        <ele>143.80000305176</ele>
        <time>2012-09-06T20:26:29.000Z</time>
      </trkpt>
      <trkpt lat="43.55334" lon="6.92674">
        <ele>143.39999389648</ele>
        <time>2012-09-06T20:26:32.000Z</time>
      </trkpt>
      <trkpt lat="43.55341" lon="6.92677">
        <ele>140.80000305176</ele>
        <time>2012-09-06T20:26:35.000Z</time>
      </trkpt>
      <trkpt lat="43.55338" lon="6.9269">
        <ele>139</ele>
        <time>2012-09-06T20:26:38.000Z</time>
      </trkpt>
      <trkpt lat="43.55346" lon="6.92693">
        <ele>136.39999389648</ele>
        <time>2012-09-06T20:26:41.000Z</time>
      </trkpt>
      <trkpt lat="43.55346" lon="6.92703">
        <ele>134.39999389648</ele>
        <time>2012-09-06T20:26:44.000Z</time>
      </trkpt>
      <trkpt lat="43.55342" lon="6.92717">
        <ele>132.60000610352</ele>
        <time>2012-09-06T20:26:48.000Z</time>
      </trkpt>
      <trkpt lat="43.55337" lon="6.92727">
        <ele>131.80000305176</ele>
        <time>2012-09-06T20:26:52.000Z</time>
      </trkpt>
      <trkpt lat="43.55343" lon="6.92732">
        <ele>129.19999694824</ele>
        <time>2012-09-06T20:26:54.000Z</time>
      </trkpt>
      <trkpt lat="43.55347" lon="6.92733">
        <ele>128.39999389648</ele>
        <time>2012-09-06T20:26:55.000Z</time>
      </trkpt>
      <trkpt lat="43.55355" lon="6.92731">
        <ele>126.80000305176</ele>
        <time>2012-09-06T20:26:58.000Z</time>
      </trkpt>
      <trkpt lat="43.55354" lon="6.9274">
        <ele>125.59999847412</ele>
        <time>2012-09-06T20:27:01.000Z</time>
      </trkpt>
      <trkpt lat="43.55364" lon="6.92743">
        <ele>122.59999847412</ele>
        <time>2012-09-06T20:27:04.000Z</time>
      </trkpt>
      <trkpt lat="43.5537" lon="6.92747">
        <ele>120.59999847412</ele>
        <time>2012-09-06T20:27:06.000Z</time>
      </trkpt>
      <trkpt lat="43.55371" lon="6.92751">
        <ele>119.80000305176</ele>
        <time>2012-09-06T20:27:07.000Z</time>
      </trkpt>
      <trkpt lat="43.55371" lon="6.92767">
        <ele>117.40000152588</ele>
        <time>2012-09-06T20:27:10.000Z</time>
      </trkpt>
      <trkpt lat="43.55374" lon="6.9278">
        <ele>115.19999694824</ele>
        <time>2012-09-06T20:27:13.000Z</time>
      </trkpt>
      <trkpt lat="43.55374" lon="6.92782">
        <ele>115</ele>
        <time>2012-09-06T20:27:14.000Z</time>
      </trkpt>
      <trkpt lat="43.55374" lon="6.92783">
        <ele>114.80000305176</ele>
        <time>2012-09-06T20:27:17.000Z</time>
      </trkpt>
      <trkpt lat="43.55375" lon="6.92796">
        <ele>113</ele>
        <time>2012-09-06T20:27:25.000Z</time>
      </trkpt>
      <trkpt lat="43.55383" lon="6.92815">
        <ele>109.19999694824</ele>
        <time>2012-09-06T20:27:28.000Z</time>
      </trkpt>
      <trkpt lat="43.55384" lon="6.92822">
        <ele>108.19999694824</ele>
        <time>2012-09-06T20:27:29.000Z</time>
      </trkpt>
      <trkpt lat="43.55384" lon="6.92836">
        <ele>106.80000305176</ele>
        <time>2012-09-06T20:27:31.000Z</time>
      </trkpt>
      <trkpt lat="43.55385" lon="6.92869">
        <ele>104.19999694824</ele>
        <time>2012-09-06T20:27:35.000Z</time>
      </trkpt>
      <trkpt lat="43.5539" lon="6.92908">
        <ele>101</ele>
        <time>2012-09-06T20:27:39.000Z</time>
      </trkpt>
      <trkpt lat="43.55392" lon="6.92917">
        <ele>100.40000152588</ele>
        <time>2012-09-06T20:27:40.000Z</time>
      </trkpt>
      <trkpt lat="43.55397" lon="6.92966">
        <ele>101.19999694824</ele>
        <time>2012-09-06T20:27:46.000Z</time>
      </trkpt>
      <trkpt lat="43.55397" lon="6.92969">
        <ele>101.19999694824</ele>
        <time>2012-09-06T20:27:47.000Z</time>
      </trkpt>
      <trkpt lat="43.55397" lon="6.9297">
        <ele>101.19999694824</ele>
        <time>2012-09-06T20:27:49.000Z</time>
      </trkpt>
      <trkpt lat="43.55396" lon="6.92967">
        <ele>101.19999694824</ele>
        <time>2012-09-06T20:27:51.000Z</time>
      </trkpt>
      <trkpt lat="43.55397" lon="6.92963">
        <ele>101</ele>
        <time>2012-09-06T20:27:53.000Z</time>
      </trkpt>
      <trkpt lat="43.55397" lon="6.92954">
        <ele>101</ele>
        <time>2012-09-06T20:27:57.000Z</time>
      </trkpt>
      <trkpt lat="43.55393" lon="6.92952">
        <ele>100.80000305176</ele>
        <time>2012-09-06T20:28:00.000Z</time>
      </trkpt>
      <trkpt lat="43.5539" lon="6.92961">
        <ele>101</ele>
        <time>2012-09-06T20:28:04.000Z</time>
      </trkpt>
      <trkpt lat="43.55389" lon="6.92963">
        <ele>101</ele>
        <time>2012-09-06T20:28:05.000Z</time>
      </trkpt>
      <trkpt lat="43.55389" lon="6.92975">
        <ele>101.19999694824</ele>
        <time>2012-09-06T20:28:11.000Z</time>
      </trkpt>
      <trkpt lat="43.55387" lon="6.92987">
        <ele>101.40000152588</ele>
        <time>2012-09-06T20:28:20.000Z</time>
      </trkpt>
      <trkpt lat="43.55387" lon="6.92988">
        <ele>101.40000152588</ele>
        <time>2012-09-06T20:28:26.000Z</time>
      </trkpt>
      <trkpt lat="43.55388" lon="6.92989">
        <ele>101.40000152588</ele>
        <time>2012-09-06T20:28:32.000Z</time>
      </trkpt>
      <trkpt lat="43.55388" lon="6.92997">
        <ele>101.59999847412</ele>
        <time>2012-09-06T20:28:45.000Z</time>
      </trkpt>
      <trkpt lat="43.55388" lon="6.93013">
        <ele>101</ele>
        <time>2012-09-06T20:28:49.000Z</time>
      </trkpt>
      <trkpt lat="43.55385" lon="6.93037">
        <ele>100.19999694824</ele>
        <time>2012-09-06T20:28:53.000Z</time>
      </trkpt>
      <trkpt lat="43.55382" lon="6.93067">
        <ele>99</ele>
        <time>2012-09-06T20:28:57.000Z</time>
      </trkpt>
      <trkpt lat="43.5538" lon="6.93082">
        <ele>98.599998474121</ele>
        <time>2012-09-06T20:28:59.000Z</time>
      </trkpt>
      <trkpt lat="43.55376" lon="6.93094">
        <ele>98.199996948242</ele>
        <time>2012-09-06T20:29:01.000Z</time>
      </trkpt>
      <trkpt lat="43.55372" lon="6.93107">
        <ele>97.800003051758</ele>
        <time>2012-09-06T20:29:03.000Z</time>
      </trkpt>
      <trkpt lat="43.55369" lon="6.9312">
        <ele>97.400001525879</ele>
        <time>2012-09-06T20:29:05.000Z</time>
      </trkpt>
      <trkpt lat="43.55364" lon="6.9314">
        <ele>96.800003051758</ele>
        <time>2012-09-06T20:29:08.000Z</time>
      </trkpt>
      <trkpt lat="43.55365" lon="6.93145">
        <ele>96.400001525879</ele>
        <time>2012-09-06T20:29:09.000Z</time>
      </trkpt>
      <trkpt lat="43.55378" lon="6.93142">
        <ele>95.199996948242</ele>
        <time>2012-09-06T20:29:12.000Z</time>
      </trkpt>
      <trkpt lat="43.55388" lon="6.93134">
        <ele>94.599998474121</ele>
        <time>2012-09-06T20:29:14.000Z</time>
      </trkpt>
      <trkpt lat="43.55393" lon="6.93133">
        <ele>94.199996948242</ele>
        <time>2012-09-06T20:29:15.000Z</time>
      </trkpt>
      <trkpt lat="43.55397" lon="6.93142">
        <ele>93.199996948242</ele>
        <time>2012-09-06T20:29:18.000Z</time>
      </trkpt>
      <trkpt lat="43.55402" lon="6.93146">
        <ele>92.199996948242</ele>
        <time>2012-09-06T20:29:21.000Z</time>
      </trkpt>
      <trkpt lat="43.55416" lon="6.93154">
        <ele>90.199996948242</ele>
        <time>2012-09-06T20:29:24.000Z</time>
      </trkpt>
      <trkpt lat="43.55429" lon="6.93165">
        <ele>85.400001525879</ele>
        <time>2012-09-06T20:29:27.000Z</time>
      </trkpt>
      <trkpt lat="43.55433" lon="6.93175">
        <ele>82.599998474121</ele>
        <time>2012-09-06T20:29:29.000Z</time>
      </trkpt>
      <trkpt lat="43.55431" lon="6.93179">
        <ele>82.599998474121</ele>
        <time>2012-09-06T20:29:30.000Z</time>
      </trkpt>
      <trkpt lat="43.55423" lon="6.93186">
        <ele>83.599998474121</ele>
        <time>2012-09-06T20:29:33.000Z</time>
      </trkpt>
      <trkpt lat="43.55429" lon="6.93195">
        <ele>80.400001525879</ele>
        <time>2012-09-06T20:29:36.000Z</time>
      </trkpt>
      <trkpt lat="43.55441" lon="6.93201">
        <ele>76.199996948242</ele>
        <time>2012-09-06T20:29:39.000Z</time>
      </trkpt>
      <trkpt lat="43.55443" lon="6.93204">
        <ele>75.199996948242</ele>
        <time>2012-09-06T20:29:40.000Z</time>
      </trkpt>
      <trkpt lat="43.55444" lon="6.93207">
        <ele>74.599998474121</ele>
        <time>2012-09-06T20:29:41.000Z</time>
      </trkpt>
      <trkpt lat="43.55445" lon="6.93211">
        <ele>73.599998474121</ele>
        <time>2012-09-06T20:29:42.000Z</time>
      </trkpt>
      <trkpt lat="43.55447" lon="6.93221">
        <ele>71.800003051758</ele>
        <time>2012-09-06T20:29:45.000Z</time>
      </trkpt>
      <trkpt lat="43.5545" lon="6.93227">
        <ele>70.400001525879</ele>
        <time>2012-09-06T20:29:47.000Z</time>
      </trkpt>
      <trkpt lat="43.55451" lon="6.93242">
        <ele>68</ele>
        <time>2012-09-06T20:29:51.000Z</time>
      </trkpt>
      <trkpt lat="43.55451" lon="6.93245">
        <ele>67.400001525879</ele>
        <time>2012-09-06T20:29:52.000Z</time>
      </trkpt>
      <trkpt lat="43.55454" lon="6.93254">
        <ele>65.400001525879</ele>
        <time>2012-09-06T20:29:55.000Z</time>
      </trkpt>
      <trkpt lat="43.55458" lon="6.93262">
        <ele>63.200000762939</ele>
        <time>2012-09-06T20:29:59.000Z</time>
      </trkpt>
      <trkpt lat="43.55457" lon="6.93263">
        <ele>63.200000762939</ele>
        <time>2012-09-06T20:30:04.000Z</time>
      </trkpt>
      <trkpt lat="43.55455" lon="6.93259">
        <ele>64.400001525879</ele>
        <time>2012-09-06T20:30:11.000Z</time>
      </trkpt>
      <trkpt lat="43.55451" lon="6.9325">
        <ele>66.800003051758</ele>
        <time>2012-09-06T20:30:19.000Z</time>
      </trkpt>
      <trkpt lat="43.5545" lon="6.9325">
        <ele>67</ele>
        <time>2012-09-06T20:30:20.000Z</time>
      </trkpt>
      <trkpt lat="43.5545" lon="6.93251">
        <ele>66.800003051758</ele>
        <time>2012-09-06T20:30:24.000Z</time>
      </trkpt>
      <trkpt lat="43.55447" lon="6.93261">
        <ele>65.599998474121</ele>
        <time>2012-09-06T20:30:32.000Z</time>
      </trkpt>
      <trkpt lat="43.55452" lon="6.93269">
        <ele>63</ele>
        <time>2012-09-06T20:30:35.000Z</time>
      </trkpt>
      <trkpt lat="43.55455" lon="6.93277">
        <ele>61</ele>
        <time>2012-09-06T20:30:39.000Z</time>
      </trkpt>
      <trkpt lat="43.5545" lon="6.93282">
        <ele>61</ele>
        <time>2012-09-06T20:30:43.000Z</time>
      </trkpt>
      <trkpt lat="43.5545" lon="6.93289">
        <ele>59.599998474121</ele>
        <time>2012-09-06T20:30:47.000Z</time>
      </trkpt>
      <trkpt lat="43.55456" lon="6.93296">
        <ele>57.200000762939</ele>
        <time>2012-09-06T20:30:51.000Z</time>
      </trkpt>
      <trkpt lat="43.55458" lon="6.93299">
        <ele>56.400001525879</ele>
        <time>2012-09-06T20:30:52.000Z</time>
      </trkpt>
      <trkpt lat="43.55462" lon="6.93301">
        <ele>55.599998474121</ele>
        <time>2012-09-06T20:30:54.000Z</time>
      </trkpt>
      <trkpt lat="43.55464" lon="6.933">
        <ele>55.400001525879</ele>
        <time>2012-09-06T20:30:55.000Z</time>
      </trkpt>
      <trkpt lat="43.55471" lon="6.93299">
        <ele>54.799999237061</ele>
        <time>2012-09-06T20:30:57.000Z</time>
      </trkpt>
      <trkpt lat="43.55477" lon="6.93291">
        <ele>55.200000762939</ele>
        <time>2012-09-06T20:30:59.000Z</time>
      </trkpt>
      <trkpt lat="43.55489" lon="6.93273">
        <ele>56.400001525879</ele>
        <time>2012-09-06T20:31:03.000Z</time>
      </trkpt>
      <trkpt lat="43.55497" lon="6.93277">
        <ele>54.400001525879</ele>
        <time>2012-09-06T20:31:06.000Z</time>
      </trkpt>
      <trkpt lat="43.55503" lon="6.93279">
        <ele>54.200000762939</ele>
        <time>2012-09-06T20:31:10.000Z</time>
      </trkpt>
      <trkpt lat="43.55503" lon="6.93274">
        <ele>54.799999237061</ele>
        <time>2012-09-06T20:31:13.000Z</time>
      </trkpt>
      <trkpt lat="43.55505" lon="6.93275">
        <ele>54.799999237061</ele>
        <time>2012-09-06T20:31:14.000Z</time>
      </trkpt>
      <trkpt lat="43.55504" lon="6.93273">
        <ele>55.200000762939</ele>
        <time>2012-09-06T20:31:23.000Z</time>
      </trkpt>
      <trkpt lat="43.55504" lon="6.93264">
        <ele>56.400001525879</ele>
        <time>2012-09-06T20:31:26.000Z</time>
      </trkpt>
      <trkpt lat="43.55502" lon="6.9326">
        <ele>56.799999237061</ele>
        <time>2012-09-06T20:31:27.000Z</time>
      </trkpt>
      <trkpt lat="43.55493" lon="6.93234">
        <ele>60.599998474121</ele>
        <time>2012-09-06T20:31:32.000Z</time>
      </trkpt>
      <trkpt lat="43.55493" lon="6.93203">
        <ele>63.200000762939</ele>
        <time>2012-09-06T20:31:36.000Z</time>
      </trkpt>
      <trkpt lat="43.55495" lon="6.93195">
        <ele>63.400001525879</ele>
        <time>2012-09-06T20:31:37.000Z</time>
      </trkpt>
      <trkpt lat="43.55497" lon="6.93178">
        <ele>64</ele>
        <time>2012-09-06T20:31:40.000Z</time>
      </trkpt>
      <trkpt lat="43.55494" lon="6.93159">
        <ele>66.199996948242</ele>
        <time>2012-09-06T20:31:44.000Z</time>
      </trkpt>
      <trkpt lat="43.55493" lon="6.93153">
        <ele>67</ele>
        <time>2012-09-06T20:31:45.000Z</time>
      </trkpt>
      <trkpt lat="43.55487" lon="6.9313">
        <ele>70.599998474121</ele>
        <time>2012-09-06T20:31:49.000Z</time>
      </trkpt>
      <trkpt lat="43.55482" lon="6.9311">
        <ele>73.800003051758</ele>
        <time>2012-09-06T20:31:53.000Z</time>
      </trkpt>
      <trkpt lat="43.55481" lon="6.93098">
        <ele>74.800003051758</ele>
        <time>2012-09-06T20:31:55.000Z</time>
      </trkpt>
      <trkpt lat="43.55479" lon="6.93076">
        <ele>77.400001525879</ele>
        <time>2012-09-06T20:31:58.000Z</time>
      </trkpt>
      <trkpt lat="43.55479" lon="6.93069">
        <ele>78.400001525879</ele>
        <time>2012-09-06T20:31:59.000Z</time>
      </trkpt>
      <trkpt lat="43.55478" lon="6.93064">
        <ele>79.400001525879</ele>
        <time>2012-09-06T20:32:00.000Z</time>
      </trkpt>
      <trkpt lat="43.55479" lon="6.93059">
        <ele>79.800003051758</ele>
        <time>2012-09-06T20:32:02.000Z</time>
      </trkpt>
      <trkpt lat="43.55481" lon="6.93057">
        <ele>79.199996948242</ele>
        <time>2012-09-06T20:32:08.000Z</time>
      </trkpt>
      <trkpt lat="43.55486" lon="6.93058">
        <ele>77.800003051758</ele>
        <time>2012-09-06T20:32:11.000Z</time>
      </trkpt>
      <trkpt lat="43.55488" lon="6.9306">
        <ele>76.800003051758</ele>
        <time>2012-09-06T20:32:12.000Z</time>
      </trkpt>
      <trkpt lat="43.55497" lon="6.93077">
        <ele>72</ele>
        <time>2012-09-06T20:32:16.000Z</time>
      </trkpt>
      <trkpt lat="43.55501" lon="6.93086">
        <ele>70</ele>
        <time>2012-09-06T20:32:18.000Z</time>
      </trkpt>
      <trkpt lat="43.55505" lon="6.93097">
        <ele>70.599998474121</ele>
        <time>2012-09-06T20:32:20.000Z</time>
      </trkpt>
      <trkpt lat="43.55511" lon="6.93117">
        <ele>71</ele>
        <time>2012-09-06T20:32:24.000Z</time>
      </trkpt>
      <trkpt lat="43.55512" lon="6.93123">
        <ele>70.400001525879</ele>
        <time>2012-09-06T20:32:25.000Z</time>
      </trkpt>
      <trkpt lat="43.55517" lon="6.93148">
        <ele>70</ele>
        <time>2012-09-06T20:32:29.000Z</time>
      </trkpt>
      <trkpt lat="43.55528" lon="6.93159">
        <ele>71.599998474121</ele>
        <time>2012-09-06T20:32:32.000Z</time>
      </trkpt>
      <trkpt lat="43.55532" lon="6.93161">
        <ele>72.199996948242</ele>
        <time>2012-09-06T20:32:33.000Z</time>
      </trkpt>
      <trkpt lat="43.55535" lon="6.93164">
        <ele>72.599998474121</ele>
        <time>2012-09-06T20:32:34.000Z</time>
      </trkpt>
      <trkpt lat="43.55535" lon="6.93169">
        <ele>72.199996948242</ele>
        <time>2012-09-06T20:32:36.000Z</time>
      </trkpt>
      <trkpt lat="43.55534" lon="6.93182">
        <ele>70.400001525879</ele>
        <time>2012-09-06T20:32:39.000Z</time>
      </trkpt>
      <trkpt lat="43.55535" lon="6.93192">
        <ele>69</ele>
        <time>2012-09-06T20:32:41.000Z</time>
      </trkpt>
      <trkpt lat="43.55534" lon="6.93209">
        <ele>66.800003051758</ele>
        <time>2012-09-06T20:32:46.000Z</time>
      </trkpt>
      <trkpt lat="43.55538" lon="6.93229">
        <ele>65</ele>
        <time>2012-09-06T20:32:51.000Z</time>
      </trkpt>
      <trkpt lat="43.55552" lon="6.93262">
        <ele>61.599998474121</ele>
        <time>2012-09-06T20:32:57.000Z</time>
      </trkpt>
      <trkpt lat="43.55567" lon="6.93283">
        <ele>59.599998474121</ele>
        <time>2012-09-06T20:33:01.000Z</time>
      </trkpt>
      <trkpt lat="43.55575" lon="6.93301">
        <ele>57</ele>
        <time>2012-09-06T20:33:04.000Z</time>
      </trkpt>
      <trkpt lat="43.55582" lon="6.93313">
        <ele>55.599998474121</ele>
        <time>2012-09-06T20:33:06.000Z</time>
      </trkpt>
      <trkpt lat="43.55582" lon="6.93333">
        <ele>52</ele>
        <time>2012-09-06T20:33:09.000Z</time>
      </trkpt>
      <trkpt lat="43.55582" lon="6.9334">
        <ele>51.200000762939</ele>
        <time>2012-09-06T20:33:10.000Z</time>
      </trkpt>
      <trkpt lat="43.55579" lon="6.9335">
        <ele>49.799999237061</ele>
        <time>2012-09-06T20:33:12.000Z</time>
      </trkpt>
      <trkpt lat="43.55574" lon="6.93362">
        <ele>48</ele>
        <time>2012-09-06T20:33:14.000Z</time>
      </trkpt>
      <trkpt lat="43.5556" lon="6.93383">
        <ele>43.799999237061</ele>
        <time>2012-09-06T20:33:18.000Z</time>
      </trkpt>
      <trkpt lat="43.5556" lon="6.93399">
        <ele>41.799999237061</ele>
        <time>2012-09-06T20:33:21.000Z</time>
      </trkpt>
      <trkpt lat="43.55561" lon="6.93404">
        <ele>41</ele>
        <time>2012-09-06T20:33:22.000Z</time>
      </trkpt>
      <trkpt lat="43.55561" lon="6.9341">
        <ele>40.400001525879</ele>
        <time>2012-09-06T20:33:24.000Z</time>
      </trkpt>
      <trkpt lat="43.55561" lon="6.93412">
        <ele>40.200000762939</ele>
        <time>2012-09-06T20:33:25.000Z</time>
      </trkpt>
      <trkpt lat="43.55562" lon="6.93413">
        <ele>40</ele>
        <time>2012-09-06T20:33:31.000Z</time>
      </trkpt>
      <trkpt lat="43.55558" lon="6.93419">
        <ele>38.799999237061</ele>
        <time>2012-09-06T20:33:39.000Z</time>
      </trkpt>
      <trkpt lat="43.55553" lon="6.93429">
        <ele>37</ele>
        <time>2012-09-06T20:33:41.000Z</time>
      </trkpt>
      <trkpt lat="43.55553" lon="6.93435">
        <ele>36.400001525879</ele>
        <time>2012-09-06T20:33:42.000Z</time>
      </trkpt>
      <trkpt lat="43.55561" lon="6.9345">
        <ele>36</ele>
        <time>2012-09-06T20:33:45.000Z</time>
      </trkpt>
      <trkpt lat="43.55571" lon="6.93476">
        <ele>34.599998474121</ele>
        <time>2012-09-06T20:33:49.000Z</time>
      </trkpt>
      <trkpt lat="43.55574" lon="6.93483">
        <ele>34.400001525879</ele>
        <time>2012-09-06T20:33:50.000Z</time>
      </trkpt>
      <trkpt lat="43.55582" lon="6.93503">
        <ele>33.599998474121</ele>
        <time>2012-09-06T20:33:53.000Z</time>
      </trkpt>
      <trkpt lat="43.55587" lon="6.93507">
        <ele>33.799999237061</ele>
        <time>2012-09-06T20:33:54.000Z</time>
      </trkpt>
      <trkpt lat="43.55602" lon="6.93508">
        <ele>35.599998474121</ele>
        <time>2012-09-06T20:33:57.000Z</time>
      </trkpt>
      <trkpt lat="43.55607" lon="6.93506">
        <ele>36.400001525879</ele>
        <time>2012-09-06T20:33:58.000Z</time>
      </trkpt>
      <trkpt lat="43.55612" lon="6.93506">
        <ele>37</ele>
        <time>2012-09-06T20:33:59.000Z</time>
      </trkpt>
      <trkpt lat="43.55619" lon="6.93515">
        <ele>37</ele>
        <time>2012-09-06T20:34:01.000Z</time>
      </trkpt>
      <trkpt lat="43.55617" lon="6.93528">
        <ele>35.599998474121</ele>
        <time>2012-09-06T20:34:03.000Z</time>
      </trkpt>
      <trkpt lat="43.55602" lon="6.93544">
        <ele>32.400001525879</ele>
        <time>2012-09-06T20:34:06.000Z</time>
      </trkpt>
      <trkpt lat="43.55595" lon="6.93555">
        <ele>30.39999961853</ele>
        <time>2012-09-06T20:34:08.000Z</time>
      </trkpt>
      <trkpt lat="43.55593" lon="6.93559">
        <ele>29.60000038147</ele>
        <time>2012-09-06T20:34:09.000Z</time>
      </trkpt>
      <trkpt lat="43.55588" lon="6.93566">
        <ele>28.39999961853</ele>
        <time>2012-09-06T20:34:12.000Z</time>
      </trkpt>
      <trkpt lat="43.55586" lon="6.93567">
        <ele>28</ele>
        <time>2012-09-06T20:34:15.000Z</time>
      </trkpt>
      <trkpt lat="43.55586" lon="6.93567">
        <ele>28</ele>
        <time>2012-09-06T20:34:16.000Z</time>
      </trkpt>
      <trkpt lat="43.55582" lon="6.9358">
        <ele>26.200000762939</ele>
        <time>2012-09-06T20:34:22.000Z</time>
      </trkpt>
      <trkpt lat="43.55573" lon="6.9361">
        <ele>24.60000038147</ele>
        <time>2012-09-06T20:34:26.000Z</time>
      </trkpt>
      <trkpt lat="43.55563" lon="6.9366">
        <ele>23.200000762939</ele>
        <time>2012-09-06T20:34:31.000Z</time>
      </trkpt>
      <trkpt lat="43.55545" lon="6.93682">
        <ele>21.60000038147</ele>
        <time>2012-09-06T20:34:34.000Z</time>
      </trkpt>
      <trkpt lat="43.55538" lon="6.93689">
        <ele>21.200000762939</ele>
        <time>2012-09-06T20:34:35.000Z</time>
      </trkpt>
      <trkpt lat="43.55516" lon="6.9371">
        <ele>19.60000038147</ele>
        <time>2012-09-06T20:34:38.000Z</time>
      </trkpt>
      <trkpt lat="43.5551" lon="6.9372">
        <ele>19.200000762939</ele>
        <time>2012-09-06T20:34:39.000Z</time>
      </trkpt>
      <trkpt lat="43.55492" lon="6.93766">
        <ele>17.200000762939</ele>
        <time>2012-09-06T20:34:43.000Z</time>
      </trkpt>
      <trkpt lat="43.55488" lon="6.93784">
        <ele>16.39999961853</ele>
        <time>2012-09-06T20:34:45.000Z</time>
      </trkpt>
      <trkpt lat="43.55489" lon="6.93791">
        <ele>16.200000762939</ele>
        <time>2012-09-06T20:34:46.000Z</time>
      </trkpt>
      <trkpt lat="43.55495" lon="6.93796">
        <ele>16.200000762939</ele>
        <time>2012-09-06T20:34:48.000Z</time>
      </trkpt>
      <trkpt lat="43.55498" lon="6.93796">
        <ele>16.200000762939</ele>
        <time>2012-09-06T20:34:51.000Z</time>
      </trkpt>
      <trkpt lat="43.555" lon="6.938">
        <ele>16.200000762939</ele>
        <time>2012-09-06T20:34:55.000Z</time>
      </trkpt>
      <trkpt lat="43.55498" lon="6.93795">
        <ele>16.39999961853</ele>
        <time>2012-09-06T20:34:59.000Z</time>
      </trkpt>
      <trkpt lat="43.55491" lon="6.93792">
        <ele>16.200000762939</ele>
        <time>2012-09-06T20:35:03.000Z</time>
      </trkpt>
      <trkpt lat="43.55492" lon="6.93796">
        <ele>16.200000762939</ele>
        <time>2012-09-06T20:35:06.000Z</time>
      </trkpt>
      <trkpt lat="43.55494" lon="6.93791">
        <ele>16.39999961853</ele>
        <time>2012-09-06T20:35:09.000Z</time>
      </trkpt>
      <trkpt lat="43.55495" lon="6.93789">
        <ele>16.39999961853</ele>
        <time>2012-09-06T20:35:10.000Z</time>
      </trkpt>
      <trkpt lat="43.55494" lon="6.93787">
        <ele>16.39999961853</ele>
        <time>2012-09-06T20:35:11.000Z</time>
      </trkpt>
      <trkpt lat="43.5549" lon="6.93788">
        <ele>16.39999961853</ele>
        <time>2012-09-06T20:35:13.000Z</time>
      </trkpt>
      <trkpt lat="43.55495" lon="6.93794">
        <ele>16.200000762939</ele>
        <time>2012-09-06T20:35:16.000Z</time>
      </trkpt>
      <trkpt lat="43.55511" lon="6.93805">
        <ele>16.200000762939</ele>
        <time>2012-09-06T20:35:20.000Z</time>
      </trkpt>
      <trkpt lat="43.55516" lon="6.93807">
        <ele>16.200000762939</ele>
        <time>2012-09-06T20:35:21.000Z</time>
      </trkpt>
      <trkpt lat="43.55531" lon="6.93816">
        <ele>16.200000762939</ele>
        <time>2012-09-06T20:35:25.000Z</time>
      </trkpt>
      <trkpt lat="43.5554" lon="6.93835">
        <ele>15.39999961853</ele>
        <time>2012-09-06T20:35:30.000Z</time>
      </trkpt>
      <trkpt lat="43.55544" lon="6.93853">
        <ele>15</ele>
        <time>2012-09-06T20:35:33.000Z</time>
      </trkpt>
      <trkpt lat="43.55553" lon="6.93849">
        <ele>15.199999809265</ele>
        <time>2012-09-06T20:35:36.000Z</time>
      </trkpt>
      <trkpt lat="43.55564" lon="6.9384">
        <ele>15.60000038147</ele>
        <time>2012-09-06T20:35:40.000Z</time>
      </trkpt>
      <trkpt lat="43.55567" lon="6.93838">
        <ele>15.60000038147</ele>
        <time>2012-09-06T20:35:41.000Z</time>
      </trkpt>
      <trkpt lat="43.55571" lon="6.93835">
        <ele>15.800000190735</ele>
        <time>2012-09-06T20:35:43.000Z</time>
      </trkpt>
    </trkseg>
  </trk>
</gpx>